Latest News: CDIP is now hiring. Job description

User Preferences

Timezone
Units
Lat/Lon format
Defaults

Geo and time bounds

238 - BARBERS POINT, KALAELOA, HI   Notice:02/13/2024 Replaced buoy Mobile View
1193 records
Date
(UTC)
Hs
(ft)
Tp
(s)
Dp
(deg)
Ta
(s)
SST
(F)
Air temp
(F)
Current sp
(kt)
Current dir
(deg)
2024-05-25 20:00 78.6 79.5 0.41 179.0
2024-05-25 19:30 3.64 14.29 184 6.33 78.6 78.8 0.41 183.0
2024-05-25 19:00 3.61 7.41 157 6.20 78.6 79.0 0.52 190.0
2024-05-25 18:30 3.74 7.14 158 6.31 78.6 78.3 0.56 168.0
2024-05-25 18:00 3.77 13.33 175 6.62 78.4 77.2 0.66 158.0
2024-05-25 17:30 3.87 7.69 156 6.82 78.4 77.2 0.54 152.0
2024-05-25 17:00 3.84 13.33 173 6.99 78.4 75.6 0.76 146.0
2024-05-25 16:30 3.77 7.41 159 6.64 78.4 75.4 0.60 148.0
2024-05-25 16:00 3.84 14.29 180 6.94 78.6 75.0 0.52 144.0
2024-05-25 15:30 3.64 15.38 184 6.95 78.6 74.7 0.37 128.0
2024-05-25 15:00 3.41 15.38 196 6.47 78.6 75.0 0.17 56.0
2024-05-25 14:30 3.61 14.29 183 7.10 78.6 74.8 0.29 336.0
2024-05-25 14:00 3.28 14.29 188 7.00 78.6 74.5 0.41 323.0
2024-05-25 13:30 3.22 13.33 183 6.90 78.8 74.7 0.56 326.0
2024-05-25 13:00 3.25 13.33 185 7.00 78.8 75.0 0.60 326.0
2024-05-25 12:30 3.12 7.14 163 6.91 78.8 75.0 1.05 334.0
2024-05-25 12:00 2.99 13.33 200 7.03 78.6 75.0 1.19 330.0
2024-05-25 11:30 3.05 14.29 201 7.54 78.4 75.0 0.68 324.0
2024-05-25 11:00 3.15 14.29 196 7.50 78.6 75.2 0.56 328.0
2024-05-25 10:30 3.15 16.67 219 6.95 78.4 75.2 0.31 311.0
2024-05-25 10:00 3.05 14.29 206 6.54 78.4 75.2 0.16 275.0
2024-05-25 09:30 3.31 14.29 196 6.92 78.4 75.4 0.02 95.0
2024-05-25 09:00 3.64 13.33 176 6.95 78.4 75.2 0.35 178.0
2024-05-25 08:30 3.54 14.29 187 6.80 78.6 75.6 0.49 177.0
2024-05-25 08:00 4.13 7.14 167 6.97 78.6 75.6 0.35 172.0
2024-05-25 07:30 4.10 8.00 164 7.20 78.6 75.6 0.43 171.0
2024-05-25 07:00 3.87 7.41 160 7.26 78.8 75.6 0.31 148.0
2024-05-25 06:30 3.77 14.29 190 7.07 78.8 75.7 0.31 150.0
2024-05-25 06:00 3.71 7.14 158 6.97 78.8 75.9 0.25 119.0
2024-05-25 05:30 3.71 7.41 161 6.91 78.8 76.5 0.16 69.0
2024-05-25 05:00 3.87 7.14 170 6.60 78.8 76.8 0.08 343.0
2024-05-25 04:30 3.67 7.41 169 6.57 78.8 77.4 0.27 339.0
2024-05-25 04:00 3.67 8.33 162 6.27 78.8 79.0 0.25 348.0
2024-05-25 03:30 3.74 14.29 205 6.33 78.8 79.7 0.37 334.0
2024-05-25 03:00 3.54 14.29 199 6.11 78.8 80.1 0.49 335.0
2024-05-25 02:30 3.67 14.29 197 6.24 78.8 79.9 0.60 338.0
2024-05-25 02:00 3.54 16.67 216 6.24 78.8 79.7 0.68 335.0
2024-05-25 01:30 3.48 14.29 201 6.07 79.0 81.0 0.74 328.0
2024-05-25 01:00 3.38 7.69 169 5.89 79.0 80.6 0.84 325.0
2024-05-25 00:30 3.48 14.29 203 6.12 79.0 80.1 0.86 314.0
2024-05-25 00:00 3.31 18.18 214 6.00 79.0 80.2 0.97 321.0
2024-05-24 23:30 3.25 7.41 166 6.12 78.8 80.8 0.86 335.0
2024-05-24 23:00 3.05 15.38 219 6.36 78.8 80.6 0.80 322.0
2024-05-24 22:30 3.12 14.29 206 6.19 78.8 80.2 0.58 312.0
2024-05-24 22:00 3.18 9.52 176 5.78 78.6 80.1 0.29 277.0
2024-05-24 21:30 3.51 15.38 202 6.63 78.6 80.1 0.19 248.0
2024-05-24 21:00 3.22 8.00 158 6.21 78.4 79.9 0.17 204.0
2024-05-24 20:30 3.48 10.00 165 6.42 78.4 79.5 0.35 207.0
2024-05-24 20:00 3.41 10.00 174 6.08 78.4 79.5 0.47 186.0
2024-05-24 19:30 3.54 7.41 157 6.25 78.4 79.3 0.43 176.0
2024-05-24 19:00 3.58 8.00 157 6.13 78.4 78.8 0.56 173.0
2024-05-24 18:30 3.87 6.90 158 6.35 78.4 78.4 0.64 166.0
2024-05-24 18:00 3.77 10.00 170 6.22 78.4 78.3 0.56 164.0
2024-05-24 17:30 3.84 10.00 165 6.53 78.4 77.7 0.72 156.0
2024-05-24 17:00 3.64 10.00 166 6.80 78.4 76.8 0.60 151.0
2024-05-24 16:30 3.74 10.00 169 6.69 78.4 75.9 0.60 149.0
2024-05-24 16:00 3.51 7.14 161 6.41 78.4 75.4 0.19 152.0
2024-05-24 15:30 3.61 7.14 161 6.84 78.4 75.4 0.04 3.0
2024-05-24 15:00 3.54 8.33 165 6.72 78.4 75.4 0.19 341.0
2024-05-24 14:30 3.48 7.14 161 6.76 78.4 75.7 0.35 326.0
2024-05-24 14:00 3.54 10.00 173 7.00 78.6 75.4 0.43 319.0
2024-05-24 13:30 3.58 7.41 159 6.78 78.4 75.7 0.52 326.0
2024-05-24 13:00 3.35 9.52 176 6.59 78.6 75.7 0.64 332.0
2024-05-24 12:30 3.18 15.38 226 6.74 78.4 75.7 0.87 333.0
2024-05-24 12:00 3.22 6.90 161 6.63 78.3 75.9 0.56 348.0
2024-05-24 11:30 3.22 7.69 156 6.49 78.3 75.9 0.68 330.0
2024-05-24 11:00 3.44 9.09 159 6.97 78.3 75.9 0.68 306.0
2024-05-24 10:30 3.51 9.52 165 6.80 78.3 75.9 0.43 304.0
2024-05-24 10:00 3.31 15.38 215 6.54 78.3 76.3 0.35 308.0
2024-05-24 09:30 3.25 11.76 184 6.54 78.4 76.5 0.10 341.0
2024-05-24 09:00 3.25 7.69 157 6.23 78.4 76.3 0.12 199.0
2024-05-24 08:30 3.44 9.52 163 6.35 78.4 76.3 0.33 155.0
2024-05-24 08:00 3.54 8.00 159 6.59 78.4 76.3 0.37 185.0
2024-05-24 07:30 3.64 15.38 211 6.43 78.4 76.1 0.56 174.0
2024-05-24 07:00 4.00 7.14 154 6.51 78.4 76.3 0.66 168.0
2024-05-24 06:30 3.61 7.41 154 6.31 78.4 76.6 0.72 171.0
2024-05-24 06:00 3.54 7.69 159 6.25 78.4 76.8 0.64 166.0
2024-05-24 05:30 3.48 7.14 158 6.38 78.4 77.2 0.41 165.0
2024-05-24 05:00 3.54 7.14 158 6.30 78.4 77.4 0.35 182.0
2024-05-24 04:30 3.48 7.14 159 5.80 78.6 78.1 0.14 197.0
2024-05-24 04:00 3.77 7.14 163 5.94 78.6 79.0 0.12 248.0
2024-05-24 03:30 3.64 7.41 157 5.79 78.6 79.2 0.27 290.0
2024-05-24 03:00 3.41 6.45 161 5.77 78.6 79.9 0.41 314.0
2024-05-24 02:30 3.48 7.69 161 5.90 78.6 79.7 0.58 342.0
2024-05-24 02:00 3.58 7.69 162 6.28 78.6 80.4 0.70 335.0
2024-05-24 01:30 3.31 7.41 166 6.07 78.6 80.8 0.60 332.0
2024-05-24 01:00 3.44 7.14 161 6.30 78.6 80.4 0.60 340.0
2024-05-24 00:30 3.64 7.14 164 6.18 78.4 81.1 0.52 323.0
2024-05-24 00:00 3.38 7.41 164 5.83 78.4 80.2 0.45 307.0
2024-05-23 23:30 3.61 8.70 164 5.76 78.6 80.4 0.25 299.0
2024-05-23 23:00 3.87 9.09 161 5.71 78.6 80.1 0.25 283.0
2024-05-23 22:30 3.97 7.41 161 5.70 78.6 80.2 0.23 312.0
2024-05-23 22:00 4.00 8.70 165 5.85 78.6 80.1 0.08 19.0
2024-05-23 21:30 4.20 7.69 165 5.85 78.6 79.7 0.02 228.0
2024-05-23 21:00 3.97 8.33 166 5.89 78.4 79.0 0.10 144.0
2024-05-23 20:30 3.84 7.14 164 6.19 78.4 80.6 0.17 170.0
2024-05-23 20:00 3.77 7.14 160 6.24 78.4 80.8 0.29 185.0
2024-05-23 19:30 4.17 7.69 164 6.67 78.4 80.2 0.33 155.0
2024-05-23 19:00 3.97 7.69 159 6.53 78.4 79.5 0.47 151.0
2024-05-23 18:30 3.90 7.41 156 6.58 78.4 79.3 0.52 151.0
2024-05-23 18:00 4.00 8.70 153 6.75 78.4 78.6 0.41 145.0
2024-05-23 17:30 3.90 10.00 168 6.84 78.6 78.4 0.43 163.0
2024-05-23 17:00 3.90 9.09 167 6.67 78.6 77.7 0.41 158.0
2024-05-23 16:30 3.74 6.90 161 6.68 78.6 76.8 0.51 131.0
2024-05-23 16:00 3.84 6.90 159 6.62 78.6 76.1 0.60 150.0
2024-05-23 15:30 3.71 9.52 160 6.55 78.4 76.1 0.51 131.0
2024-05-23 15:00 3.58 8.33 162 6.60 78.4 75.9 0.37 87.0
2024-05-23 14:30 3.44 7.14 159 6.53 78.4 76.1 0.31 26.0
2024-05-23 14:00 3.41 8.70 165 6.91 78.4 76.5 0.37 5.0
2024-05-23 13:30 3.31 8.33 159 6.78 78.4 77.0 0.41 19.0
2024-05-23 13:00 3.61 9.52 165 7.02 78.4 76.8 0.25 13.0
2024-05-23 12:30 3.31 6.90 160 6.93 78.4 76.6 0.35 346.0
2024-05-23 12:00 3.81 8.00 161 6.81 78.4 76.6 0.37 1.0
2024-05-23 11:30 3.87 8.00 159 7.13 78.4 76.6 0.41 359.0
2024-05-23 11:00 3.74 8.70 159 6.91 78.4 76.8 0.23 18.0
2024-05-23 10:30 3.84 8.33 157 6.86 78.4 76.8 0.19 286.0
2024-05-23 10:00 3.61 9.09 165 6.62 78.4 76.8 0.17 252.0
2024-05-23 09:30 3.77 11.76 183 6.99 78.4 76.6 0.16 220.0
2024-05-23 09:00 3.97 12.50 181 6.94 78.6 77.0 0.31 242.0
2024-05-23 08:30 3.90 6.67 163 6.49 78.8 77.2 0.31 202.0
2024-05-23 08:00 4.07 6.67 164 6.65 78.8 77.4 0.51 179.0
2024-05-23 07:30 4.27 8.33 165 6.75 79.0 77.4 0.76 189.0
2024-05-23 07:00 3.81 6.90 161 6.49 79.0 77.5 0.70 174.0
2024-05-23 06:30 4.17 12.50 180 6.65 79.0 77.7 0.66 167.0
2024-05-23 06:00 3.87 7.14 163 6.43 79.0 77.9 0.72 170.0
2024-05-23 05:30 3.87 11.76 176 6.78 79.2 78.1 0.62 158.0
2024-05-23 05:00 3.74 8.00 165 6.42 79.3 78.6 0.49 148.0
2024-05-23 04:30 3.74 10.00 180 6.30 79.3 79.0 0.41 138.0
2024-05-23 04:00 3.77 9.09 171 6.31 79.3 79.5 0.33 112.0
2024-05-23 03:30 3.81 7.41 169 5.96 79.5 80.2 0.29 81.0
2024-05-23 03:00 3.81 10.53 178 6.05 79.7 80.6 0.19 64.0
2024-05-23 02:30 3.51 11.11 178 6.88 79.9 80.6 0.21 48.0
2024-05-23 02:00 3.54 11.11 175 7.04 79.7 78.8 0.23 31.0
2024-05-23 01:30 3.58 10.53 175 6.87 79.5 0.17 50.0
2024-05-23 01:00 3.54 13.33 170 6.59 79.5 74.1 0.23 3.0
2024-05-23 00:30 3.81 11.11 176 6.72 79.5 77.7 0.25 13.0
2024-05-23 00:00 3.71 10.53 174 6.59 79.5 79.0 0.35 355.0
2024-05-22 23:30 3.48 11.76 179 6.57 79.3 79.0 0.35 354.0
2024-05-22 23:00 3.77 9.52 169 6.75 79.0 78.4 0.21 19.0
2024-05-22 22:30 3.90 11.11 178 6.94 79.0 78.3 0.16 343.0
2024-05-22 22:00 4.07 8.00 161 6.99 79.0 78.3 0.27 290.0
2024-05-22 21:30 3.64 13.33 181 6.86 79.2 78.3 0.10 265.0
2024-05-22 21:00 3.67 13.33 178 7.17 78.8 78.3 0.04 300.0
2024-05-22 20:30 3.74 13.33 182 6.76 78.8 78.6 0.21 204.0
2024-05-22 20:00 3.97 12.50 178 6.66 79.2 79.2 0.47 183.0
2024-05-22 19:30 4.04 7.41 160 7.11 79.0 79.7 0.56 153.0
2024-05-22 19:00 4.46 12.50 177 7.45 78.6 79.0 0.64 148.0
2024-05-22 18:30 4.53 8.33 159 7.40 78.4 79.2 0.64 159.0
2024-05-22 18:00 4.00 11.76 175 7.22 78.4 80.1 0.76 157.0
2024-05-22 17:30 4.13 9.09 166 7.38 78.4 77.5 0.84 157.0
2024-05-22 17:00 3.90 13.33 171 7.39 78.4 77.7 0.91 162.0
2024-05-22 16:30 3.54 9.09 167 7.20 78.4 76.8 0.87 148.0
2024-05-22 16:00 3.64 11.76 174 7.48 78.4 75.2 0.68 145.0
2024-05-22 15:30 3.61 13.33 177 7.87 78.4 75.9 0.43 132.0
2024-05-22 15:00 3.35 12.50 175 7.43 78.4 76.1 0.56 99.0
2024-05-22 14:30 3.51 13.33 174 7.86 78.4 76.3 0.43 83.0
2024-05-22 14:00 3.25 13.33 171 7.80 78.4 76.1 0.43 69.0
2024-05-22 13:30 3.61 14.29 172 8.51 78.4 76.3 0.52 56.0
2024-05-22 13:00 3.51 11.11 179 7.92 78.4 76.1 0.60 42.0
2024-05-22 12:30 3.31 12.50 182 7.99 78.4 76.3 0.56 13.0
2024-05-22 12:00 3.28 13.33 181 8.02 78.4 76.1 0.68 360.0
2024-05-22 11:30 3.15 13.33 181 7.79 78.4 76.3 0.76 346.0
2024-05-22 11:00 3.15 12.50 186 7.76 78.3 75.6 0.89 330.0
2024-05-22 10:30 3.25 13.33 189 7.71 78.3 75.9 0.97 334.0
2024-05-22 10:00 3.38 13.33 178 7.69 78.4 76.3 0.47 306.0
2024-05-22 09:30 3.25 14.29 187 7.32 78.4 76.3 0.29 312.0
2024-05-22 09:00 3.61 12.50 184 7.57 78.4 76.6 0.02 330.0
2024-05-22 08:30 3.84 14.29 181 7.62 78.4 76.6 0.08 234.0
2024-05-22 08:00 3.74 13.33 183 7.14 78.4 76.5 0.29 135.0
2024-05-22 07:30 3.84 12.50 182 6.99 78.4 76.6 0.47 157.0
2024-05-22 07:00 4.04 13.33 181 6.91 78.6 77.2 0.76 156.0
2024-05-22 06:30 4.13 13.33 182 7.26 78.6 77.2 0.60 140.0
2024-05-22 06:00 4.33 14.29 181 7.26 78.6 77.5 0.43 136.0
2024-05-22 05:30 3.87 13.33 179 6.97 78.6 78.1 0.45 139.0
2024-05-22 05:00 3.87 13.33 184 6.90 78.6 78.6 0.54 127.0
2024-05-22 04:30 4.10 13.33 173 6.86 78.6 79.2 0.37 112.0
2024-05-22 04:00 4.10 13.33 171 7.16 78.6 79.5 0.29 81.0
2024-05-22 03:30 4.23 13.33 174 7.38 78.4 80.4 0.37 85.0
2024-05-22 03:00 3.97 13.33 181 6.94 78.4 80.2 0.27 70.0
2024-05-22 02:30 3.61 13.33 180 6.34 78.4 81.0 0.14 59.0
2024-05-22 02:00 3.90 13.33 182 6.39 78.4 81.0 0.27 62.0
2024-05-22 01:30 4.13 13.33 183 6.07 78.4 78.8 0.14 39.0
2024-05-22 01:00 3.90 13.33 200 6.07 78.4 78.4 0.29 17.0
2024-05-22 00:30 3.84 13.33 193 6.05 78.4 78.1 0.31 354.0
2024-05-22 00:00 4.20 12.50 185 6.05 78.4 78.1 0.23 38.0
2024-05-21 23:30 4.17 14.29 188 6.11 78.4 78.1 0.29 30.0
2024-05-21 23:00 4.27 13.33 182 6.17 77.7 77.7 0.25 23.0
2024-05-21 22:30 4.49 13.33 190 6.33 77.9 77.5 0.27 309.0
2024-05-21 22:00 4.53 13.33 194 6.54 78.1 77.7 0.06 312.0
2024-05-21 21:30 4.17 13.33 186 6.21 78.1 77.9 0.10 40.0
2024-05-21 21:00 4.23 12.50 190 6.64 78.1 79.0 0.10 64.0
2024-05-21 20:30 4.23 14.29 186 6.77 78.1 79.3 0.17 123.0
2024-05-21 20:00 4.04 14.29 190 7.23 77.9 79.9 0.21 116.0
2024-05-21 19:30 3.87 13.33 186 7.02 77.9 79.7 0.25 125.0
2024-05-21 19:00 4.23 14.29 187 7.51 77.9 79.5 0.19 95.0
2024-05-21 18:30 4.17 14.29 184 7.55 77.9 78.8 0.27 123.0
2024-05-21 18:00 4.07 14.29 192 7.58 77.9 78.3 0.33 80.0
2024-05-21 17:30 3.90 14.29 185 7.62 77.7 77.7 0.31 59.0
2024-05-21 17:00 3.81 14.29 181 7.61 77.4 76.6 0.21 34.0
2024-05-21 16:30 3.84 14.29 185 8.12 77.4 75.6 0.06 2.0
2024-05-21 16:00 3.81 13.33 188 8.12 77.4 75.2 0.21 243.0
2024-05-21 15:30 4.30 14.29 184 8.49 77.7 75.4 0.10 229.0
2024-05-21 15:00 4.07 14.29 176 7.78 77.7 75.4 0.04 160.0
2024-05-21 14:30 3.81 14.29 180 7.43 77.7 75.6 0.16 12.0
2024-05-21 14:00 3.74 14.29 171 7.52 77.7 75.6 0.43 343.0
2024-05-21 13:30 3.94 14.29 174 8.35 77.5 76.1 0.68 351.0
2024-05-21 13:00 3.61 14.29 186 8.01 77.4 75.6 0.91 336.0
2024-05-21 12:30 3.97 14.29 184 8.58 77.4 75.6 1.07 338.0
2024-05-21 12:00 3.84 14.29 184 8.75 77.5 75.6 1.07 335.0
2024-05-21 11:30 3.97 14.29 187 8.46 77.5 75.7 1.11 330.0
2024-05-21 11:00 3.67 14.29 189 7.86 77.2 76.1 1.19 323.0
2024-05-21 10:30 3.67 14.29 188 8.29 77.5 76.3 1.34 325.0
2024-05-21 10:00 3.81 14.29 186 8.25 77.5 76.3 1.42 327.0
2024-05-21 09:30 3.77 14.29 190 8.22 77.2 76.5 1.36 332.0
2024-05-21 09:00 3.90 15.38 185 8.36 77.2 1.44 333.0
2024-05-21 08:30 3.74 14.29 202 8.00 77.0 77.4 0.78 322.0
2024-05-21 08:00 3.94 14.29 201 8.26 77.0 77.4 0.56 325.0
2024-05-21 07:30 4.00 15.38 195 8.41 77.0 76.8 0.29 290.0
2024-05-21 07:00 3.81 14.29 195 7.67 77.2 77.0 0.19 268.0
2024-05-21 06:30 4.04 14.29 192 8.01 77.2 77.2 0.16 252.0
2024-05-21 06:00 3.77 15.38 185 7.36 77.2 77.7 0.21 223.0
2024-05-21 05:30 4.07 15.38 188 7.64 77.2 77.7 0.17 176.0
2024-05-21 05:00 4.56 15.38 184 8.07 77.2 78.1 0.27 107.0
2024-05-21 04:30 4.23 15.38 176 7.81 77.2 79.0 0.14 42.0
2024-05-21 04:00 4.07 14.29 186 7.48 77.2 79.5 0.33 7.0
2024-05-21 03:30 4.23 15.38 184 7.89 77.4 79.3 0.51 350.0
2024-05-21 03:00 4.27 15.38 185 7.66 77.5 79.3 0.37 334.0
2024-05-21 02:30 4.13 15.38 195 7.20 77.9 79.0 0.76 350.0
2024-05-21 02:00 4.17 15.38 203 7.26 77.9 78.6 0.78 341.0
2024-05-21 01:30 3.90 15.38 200 7.81 78.1 78.6 0.93 329.0
2024-05-21 01:00 4.13 15.38 212 7.95 78.1 78.4 1.09 333.0
2024-05-21 00:30 4.23 15.38 206 7.57 78.1 79.3 1.22 331.0
2024-05-21 00:00 3.87 15.38 189 7.57 77.9 78.1 1.21 342.0
2024-05-20 23:30 4.17 15.38 179 7.77 77.4 79.3 1.07 338.0
2024-05-20 23:00 4.49 15.38 188 7.47 77.4 78.6 0.41 327.0
2024-05-20 22:30 4.49 15.38 186 7.14 77.4 78.6 0.35 318.0
2024-05-20 22:00 4.63 15.38 194 7.16 77.5 78.8 0.23 292.0
2024-05-20 21:30 4.99 15.38 189 7.55 77.2 78.4 0.17 237.0
2024-05-20 21:00 4.86 15.38 189 7.49 77.5 77.9 0.31 224.0
2024-05-20 20:30 4.79 15.38 197 7.28 77.7 78.4 0.39 206.0
2024-05-20 20:00 4.69 15.38 190 7.54 77.5 78.3 0.43 211.0
2024-05-20 19:30 5.18 15.38 185 7.98 77.5 78.1 0.31 220.0
2024-05-20 19:00 5.22 15.38 183 8.04 76.8 78.3 0.31 207.0
2024-05-20 18:30 5.09 15.38 184 7.96 77.0 78.8 0.52 207.0
2024-05-20 18:00 4.95 15.38 185 8.30 76.8 79.7 0.60 196.0
2024-05-20 17:30 5.09 15.38 183 8.10 76.6 78.6 0.49 196.0
2024-05-20 17:00 4.89 16.67 177 8.25 76.5 77.2 0.54 199.0
2024-05-20 16:30 5.05 16.67 188 8.53 76.6 76.6 0.68 201.0
2024-05-20 16:00 5.12 15.38 185 8.14 76.5 74.1 0.37 190.0
2024-05-20 15:30 5.05 16.67 189 8.57 76.6 74.1 0.27 199.0
2024-05-20 15:00 5.02 16.67 191 8.65 76.8 74.8 0.27 237.0
2024-05-20 14:30 4.59 16.67 184 8.29 77.2 74.8 0.33 308.0
2024-05-20 14:00 4.89 16.67 183 8.84 77.2 75.9 0.56 341.0
2024-05-20 13:30 4.89 16.67 185 9.04 77.2 75.6 0.72 352.0
2024-05-20 13:00 4.76 16.67 184 9.12 77.4 75.0 0.74 343.0
2024-05-20 12:30 4.53 16.67 189 8.92 77.4 75.2 0.76 338.0
2024-05-20 12:00 4.30 16.67 181 9.32 77.4 75.7 0.87 336.0
2024-05-20 11:30 4.23 16.67 184 8.56 77.4 75.9 0.95 329.0
2024-05-20 11:00 4.10 16.67 183 8.87 77.4 76.6 0.99 336.0
2024-05-20 10:30 4.10 15.38 189 8.96 77.4 76.6 1.22 336.0
2024-05-20 10:00 3.90 16.67 190 9.35 77.2 76.6 1.36 334.0
2024-05-20 09:30 3.87 16.67 185 9.02 77.2 76.3 1.50 333.0
2024-05-20 09:00 3.81 16.67 188 9.08 77.0 76.3 0.91 331.0
2024-05-20 08:30 4.23 16.67 187 9.17 77.0 76.3 0.82 333.0
2024-05-20 08:00 4.56 16.67 191 9.46 77.0 76.1 0.51 327.0
2024-05-20 07:30 4.56 16.67 191 9.09 77.2 76.3 0.29 325.0
2024-05-20 07:00 4.36 16.67 193 8.64 77.4 76.8 0.17 310.0
2024-05-20 06:30 4.53 16.67 191 8.78 77.4 77.0 0.14 330.0
2024-05-20 06:00 4.56 16.67 191 8.29 77.4 77.4 0.17 249.0
2024-05-20 05:30 4.33 14.29 183 7.78 77.4 77.9 0.10 261.0
2024-05-20 05:00 4.76 16.67 183 7.90 77.2 78.6 0.14 191.0
2024-05-20 04:30 4.89 16.67 185 8.43 77.2 78.6 0.21 181.0
2024-05-20 04:00 4.69 14.29 187 8.03 77.2 77.9 0.14 142.0
2024-05-20 03:30 4.69 16.67 193 8.22 77.2 78.4 0.08 239.0
2024-05-20 03:00 4.27 15.38 185 8.02 77.5 78.4 0.14 281.0
2024-05-20 02:30 4.46 16.67 187 8.49 77.7 79.0 0.12 353.0
2024-05-20 02:00 4.36 15.38 188 8.14 77.7 79.2 0.33 357.0
2024-05-20 01:30 4.72 14.29 184 8.56 77.4 78.6 0.49 346.0
2024-05-20 01:00 4.76 16.67 184 8.70 78.1 78.1 0.54 337.0
2024-05-20 00:30 4.59 14.29 189 8.29 77.5 78.6 0.72 340.0
2024-05-20 00:00 4.33 14.29 188 8.28 77.5 78.8 0.76 349.0
2024-05-19 23:30 4.66 16.67 188 8.56 77.4 77.9 0.80 344.0
2024-05-19 23:00 4.72 18.18 187 8.05 77.2 77.9 0.82 337.0
2024-05-19 22:30 5.09 18.18 197 8.36 77.2 77.5 0.91 330.0
2024-05-19 22:00 4.79 18.18 193 8.25 77.2 77.2 0.74 334.0
2024-05-19 21:30 5.05 18.18 190 8.59 76.8 77.2 0.72 321.0
2024-05-19 21:00 4.99 18.18 188 8.55 76.8 77.5 0.68 322.0
2024-05-19 20:30 4.95 15.38 188 8.17 76.8 77.2 0.54 330.0
2024-05-19 20:00 4.95 8.70 188 7.87 76.8 75.7 0.52 337.0
2024-05-19 19:30 4.59 18.18 186 7.84 76.8 76.3 0.72 341.0
2024-05-19 19:00 5.05 15.38 188 7.77 76.8 0.68 339.0
2024-05-19 18:30 5.09 18.18 185 7.93 76.8 0.54 327.0
2024-05-19 18:00 4.89 18.18 193 7.52 76.8 0.31 328.0
2024-05-19 17:30 5.22 14.29 192 7.71 76.8 77.0 0.39 321.0
2024-05-19 17:00 5.09 18.18 183 7.68 76.8 76.8 0.43 313.0
2024-05-19 16:30 5.18 18.18 187 7.81 76.8 75.9 0.31 327.0
2024-05-19 16:00 4.79 18.18 188 7.82 76.8 75.4 0.27 322.0
2024-05-19 15:30 4.72 15.38 192 7.86 76.8 75.6 0.23 324.0
2024-05-19 15:00 4.86 14.29 192 7.84 76.8 75.9 0.27 341.0
2024-05-19 14:30 4.43 15.38 183 7.41 76.8 75.7 0.54 322.0
2024-05-19 14:00 4.72 14.29 191 8.13 76.8 75.9 0.62 334.0
2024-05-19 13:30 4.72 18.18 198 8.26 76.8 75.9 0.80 328.0
2024-05-19 13:00 4.56 14.29 206 8.03 76.8 75.9 0.99 331.0
2024-05-19 12:30 4.30 15.38 196 8.09 76.8 76.1 1.15 332.0
2024-05-19 12:00 4.49 18.18 184 8.13 76.8 76.3 1.21 331.0
2024-05-19 11:30 4.40 15.38 193 7.42 76.8 75.7 1.28 328.0
2024-05-19 11:00 4.56 15.38 175 7.45 76.8 75.9 1.34 334.0
2024-05-19 10:30 4.46 20.00 197 7.73 76.8 75.7 1.40 330.0
2024-05-19 10:00 4.30 18.18 176 7.60 76.8 75.9 1.52 331.0
2024-05-19 09:30 4.20 15.38 188 7.51 76.5 75.9 1.56 332.0
2024-05-19 09:00 4.17 15.38 198 7.19 76.3 1.03 337.0
2024-05-19 08:30 4.23 16.67 181 6.14 76.3 0.93 330.0
2024-05-19 08:00 4.79 14.29 199 6.40 76.3 73.8 0.82 320.0
2024-05-19 07:30 4.79 15.38 202 6.51 76.3 0.70 317.0
2024-05-19 07:00 4.49 15.38 193 7.28 76.5 75.4 0.64 321.0
2024-05-19 06:30 4.72 7.14 170 7.23 76.5 75.7 0.54 305.0
2024-05-19 06:00 4.86 15.38 200 7.97 76.6 75.6 0.35 277.0
2024-05-19 05:30 5.09 15.38 195 7.87 76.6 75.9 0.31 228.0
2024-05-19 05:00 4.95 15.38 197 8.45 77.0 0.41 229.0
2024-05-19 04:30 4.76 15.38 196 8.20 77.0 0.60 208.0
2024-05-19 04:00 4.92 13.33 202 8.15 77.2 74.8 0.66 214.0
2024-05-19 03:30 5.05 7.69 179 8.02 77.2 77.0 0.76 202.0
2024-05-19 03:00 4.82 15.38 195 7.79 77.2 77.5 0.51 209.0
2024-05-19 02:30 5.02 13.33 201 8.03 77.2 76.8 0.49 209.0
2024-05-19 02:00 4.99 8.70 187 8.01 77.0 76.5 0.33 211.0
2024-05-19 01:30 4.69 12.50 203 7.77 77.0 75.9 0.39 204.0
2024-05-19 01:00 4.89 15.38 190 7.40 77.0 0.16 233.0
2024-05-19 00:30 4.79 12.50 194 6.87 77.0 0.17 279.0
2024-05-19 00:00 5.18 13.33 192 6.94 77.2 73.2 0.27 318.0
2024-05-18 23:30 5.15 13.33 199 7.38 77.2 73.2 0.45 323.0
2024-05-18 23:00 5.09 15.38 194 7.15 77.2 73.6 0.60 327.0
2024-05-18 22:30 4.99 13.33 199 6.74 77.4 73.6 0.74 338.0
2024-05-18 22:00 4.89 10.53 288 6.90 77.9 73.9 0.82 343.0
2024-05-18 21:30 5.25 13.33 199 7.69 77.7 75.0 0.80 324.0
2024-05-18 21:00 4.99 12.50 250 7.62 77.9 78.3 0.64 325.0
2024-05-18 20:30 5.18 14.29 189 7.35 77.5 79.5 0.41 303.0
2024-05-18 20:00 5.12 14.29 205 7.12 77.2 78.6 0.27 291.0
2024-05-18 19:30 5.09 14.29 202 7.28 77.0 77.5 0.37 332.0
2024-05-18 19:00 5.22 6.67 166 7.38 77.4 77.7 0.17 276.0
2024-05-18 18:30 5.31 14.29 192 7.40 77.5 77.4 0.23 296.0
2024-05-18 18:00 5.45 14.29 191 7.65 77.5 77.7 0.23 225.0
2024-05-18 17:30 5.22 12.50 263 7.79 77.4 0.35 224.0
2024-05-18 17:00 5.58 14.29 200 8.13 77.5 76.8 0.56 220.0
2024-05-18 16:30 5.15 15.38 198 7.74 77.7 77.0 0.54 227.0
2024-05-18 16:00 5.28 15.38 196 7.99 77.5 0.51 223.0
2024-05-18 15:30 5.05 15.38 199 8.00 77.5 75.4 0.41 206.0
2024-05-18 15:00 5.09 16.67 188 7.89 77.5 77.2 0.51 210.0
2024-05-18 14:30 5.22 12.50 239 8.17 77.4 77.2 0.60 215.0
2024-05-18 14:00 5.31 14.29 193 8.14 77.2 77.0 0.54 223.0
2024-05-18 13:30 5.54 13.33 209 8.48 77.2 76.6 0.33 270.0
2024-05-18 13:00 5.91 15.38 194 9.11 77.2 76.8 0.52 292.0
2024-05-18 12:30 5.74 12.50 254 8.70 77.2 76.6 0.72 307.0
2024-05-18 12:00 5.91 12.50 265 8.75 77.4 0.78 317.0
2024-05-18 11:30 6.00 12.50 279 9.05 77.4 0.76 312.0
2024-05-18 11:00 5.68 11.76 290 8.70 77.5 0.82 316.0
2024-05-18 10:30 5.58 11.11 308 8.88 77.5 75.6 0.87 322.0
2024-05-18 10:00 5.51 12.50 274 8.78 77.5 77.7 1.09 329.0
2024-05-18 09:30 5.61 11.76 295 8.42 77.5 77.9 1.17 328.0
2024-05-18 09:00 5.81 11.11 280 8.26 77.4 77.9 1.09 338.0
2024-05-18 08:30 6.46 11.11 291 8.92 77.4 77.9 1.17 338.0
2024-05-18 08:00 5.64 12.50 254 8.12 77.4 77.9 1.24 335.0
2024-05-18 07:30 7.09 11.76 284 9.15 77.5 78.1 1.26 323.0
2024-05-18 07:00 6.69 12.50 281 8.23 77.5 78.1 1.28 325.0
2024-05-18 06:30 6.63 11.76 299 8.27 77.7 78.3 1.13 323.0
2024-05-18 06:00 6.92 12.50 292 8.52 77.7 78.1 0.93 319.0
2024-05-18 05:30 6.96 11.76 308 8.25 77.7 78.1 0.41 2.0
2024-05-18 05:00 6.59 13.33 297 8.08 77.5 78.1 0.43 351.0
2024-05-18 04:30 6.92 11.76 311 7.95 77.5 78.3 0.31 345.0
2024-05-18 04:00 6.53 12.50 306 7.72 77.5 78.6 0.35 25.0
2024-05-18 03:30 6.86 11.11 316 7.98 77.9 79.5 0.27 45.0
2024-05-18 03:00 7.19 12.50 302 8.02 77.9 79.5 0.31 59.0
2024-05-18 02:30 7.09 11.76 316 8.17 77.9 79.9 0.39 51.0
2024-05-18 02:00 6.53 11.11 322 7.65 77.9 79.7 0.58 47.0
2024-05-18 01:30 7.35 11.76 313 8.41 77.7 80.1 0.39 38.0
2024-05-18 01:00 7.38 12.50 298 8.13 77.4 79.7 0.37 41.0
2024-05-18 00:30 7.22 12.50 300 7.94 77.5 79.5 0.68 32.0
2024-05-18 00:00 6.63 11.76 308 7.52 77.5 79.3 0.74 11.0
2024-05-17 23:30 6.79 11.76 304 7.58 77.5 79.2 0.91 7.0
2024-05-17 23:00 6.86 16.67 194 7.92 77.5 79.2 1.11 346.0
2024-05-17 22:30 5.91 13.33 250 7.45 77.2 79.2 0.89 341.0
2024-05-17 22:00 5.84 16.67 204 7.17 77.2 79.3 0.86 345.0
2024-05-17 21:30 5.91 16.67 201 6.82 77.0 79.5 0.76 351.0
2024-05-17 21:00 6.10 16.67 201 7.20 77.0 79.3 0.68 345.0
2024-05-17 20:30 6.07 16.67 197 6.80 76.6 78.6 0.60 352.0
2024-05-17 20:00 6.17 16.67 201 7.45 75.9 0.58 9.0
2024-05-17 19:30 5.97 16.67 197 7.35 76.1 0.45 353.0
2024-05-17 19:00 6.20 16.67 197 7.92 76.3 72.9 0.27 8.0
2024-05-17 18:30 5.97 11.11 316 7.84 76.6 72.3 0.31 322.0
2024-05-17 18:00 6.59 11.11 310 8.43 76.5 72.7 0.25 290.0
2024-05-17 17:30 7.22 11.11 312 9.06 76.5 72.9 0.17 288.0
2024-05-17 17:00 7.41 11.11 310 9.30 76.6 72.7 0.27 263.0
2024-05-17 16:30 7.05 11.11 312 8.76 76.8 72.3 0.37 277.0
2024-05-17 16:00 7.09 11.76 299 8.84 76.5 72.1 0.29 283.0
2024-05-17 15:30 7.71 11.76 310 8.90 76.8 71.8 0.39 240.0
2024-05-17 15:00 7.58 11.76 313 9.15 77.0 73.2 0.41 219.0
2024-05-17 14:30 7.78 10.53 307 9.03 76.8 73.0 0.43 205.0
2024-05-17 14:00 7.41 11.11 308 8.87 76.8 0.37 219.0
2024-05-17 13:30 7.78 11.11 309 8.81 76.8 72.9 0.47 215.0
2024-05-17 13:00 8.17 10.53 313 9.13 76.8 72.3 0.25 347.0
2024-05-17 12:30 8.17 11.11 312 9.25 76.8 0.41 333.0
2024-05-17 12:00 8.37 11.76 305 9.10 76.8 71.8 0.58 338.0
2024-05-17 11:30 8.60 11.11 309 9.35 76.8 0.82 338.0
2024-05-17 11:00 7.68 11.11 311 9.04 76.8 71.8 0.72 335.0
2024-05-17 10:30 7.12 14.29 200 9.24 77.0 72.0 0.72 337.0
2024-05-17 10:00 6.92 11.11 308 8.97 77.0 73.0 0.87 334.0
2024-05-17 09:30 6.92 10.53 309 8.87 76.8 73.6 1.15 332.0
2024-05-17 09:00 6.89 18.18 194 8.70 76.8 74.3 1.09 336.0
2024-05-17 08:30 7.45 18.18 192 9.18 76.8 74.5 1.09 329.0
2024-05-17 08:00 8.04 11.11 310 9.14 77.0 74.1 1.30 326.0
2024-05-17 07:30 7.35 10.53 312 8.22 76.8 72.7 1.30 322.0
2024-05-17 07:00 7.94 11.11 312 7.94 76.6 74.1 0.97 333.0
2024-05-17 06:30 7.51 10.53 313 7.31 76.6 0.91 333.0
2024-05-17 06:00 8.01 10.53 310 7.22 76.6 0.74 347.0
2024-05-17 05:30 7.97 10.53 315 7.09 76.8 0.56 344.0
2024-05-17 05:00 7.02 10.53 318 6.37 76.8 73.2 0.45 346.0
2024-05-17 04:30 7.12 15.38 194 6.62 76.8 0.47 37.0
2024-05-17 04:00 7.15 14.29 188 6.66 76.8 0.52 56.0
2024-05-17 03:30 7.19 11.11 322 6.93 76.6 0.39 51.0
2024-05-17 03:00 6.89 18.18 197 6.76 76.8 74.8 0.21 81.0
2024-05-17 02:30 6.79 14.29 193 6.89 76.6 75.2 0.27 108.0
2024-05-17 02:00 6.43 6.25 172 6.67 76.8 0.35 89.0
2024-05-17 01:30 6.86 18.18 183 6.96 76.6 74.7 0.33 81.0
2024-05-17 01:00 6.73 18.18 192 7.19 76.6 74.8 0.39 56.0
2024-05-17 00:30 6.36 15.38 188 6.90 76.6 76.3 0.52 53.0
2024-05-17 00:00 6.86 11.11 309 7.43 76.6 74.8 0.86 55.0
2024-05-16 23:30 7.09 9.52 304 7.28 76.8 76.1 0.95 37.0
2024-05-16 23:00 6.43 11.11 305 7.25 76.8 0.87 28.0
2024-05-16 22:30 6.59 18.18 195 7.30 77.0 77.5 0.74 9.0
2024-05-16 22:00 6.20 11.11 303 7.15 76.8 0.86 3.0
2024-05-16 21:30 6.20 15.38 196 6.82 76.8 73.9 0.99 360.0
2024-05-16 21:00 6.46 15.38 192 7.00 76.8 1.19 349.0
2024-05-16 20:30 6.99 11.11 298 6.77 76.8 73.8 1.11 348.0
2024-05-16 20:00 7.28 10.53 303 7.04 76.6 72.7 1.11 342.0
2024-05-16 19:30 7.38 10.53 308 6.55 76.6 73.0 1.09 339.0
2024-05-16 19:00 6.96 10.53 302 6.30 76.8 72.7 1.09 342.0
2024-05-16 18:30 7.28 10.00 298 6.53 76.8 72.5 1.24 338.0
2024-05-16 18:00 6.96 11.11 295 6.68 76.8 72.0 1.09 339.0
2024-05-16 17:30 6.89 11.11 304 6.61 77.0 1.11 339.0
2024-05-16 17:00 6.30 11.76 297 6.60 77.0 75.9 0.91 338.0
2024-05-16 16:30 6.40 15.38 206 6.97 77.0 0.66 344.0
2024-05-16 16:00 5.84 15.38 202 7.08 77.0 0.56 330.0
2024-05-16 15:30 5.31 11.11 322 7.14 77.0 0.47 338.0
2024-05-16 15:00 5.09 15.38 198 7.97 77.0 72.9 0.37 320.0
2024-05-16 14:30 4.92 11.76 316 7.65 77.0 71.6 0.21 327.0
2024-05-16 14:00 4.76 11.76 318 7.36 77.0 0.17 350.0
2024-05-16 13:30 4.43 12.50 292 7.10 77.0 0.27 348.0
2024-05-16 13:00 4.79 12.50 291 7.50 77.0 0.21 358.0
2024-05-16 12:30 4.66 12.50 278 6.93 77.0 72.0 0.43 345.0
2024-05-16 12:00 4.63 15.38 197 6.93 77.0 72.3 0.39 343.0
2024-05-16 11:30 4.72 16.67 200 7.60 77.0 72.7 0.39 328.0
2024-05-16 11:00 4.53 15.38 199 7.21 77.0 72.7 0.64 350.0
2024-05-16 10:30 4.53 16.67 200 7.68 77.2 75.7 0.70 345.0
2024-05-16 10:00 4.33 15.38 199 6.33 77.2 75.7 0.86 344.0
2024-05-16 09:30 4.63 13.33 212 6.84 77.2 73.9 1.11 356.0
2024-05-16 09:00 4.56 12.50 243 6.70 77.2 74.5 1.21 347.0
2024-05-16 08:30 4.49 16.67 203 6.35 77.7 75.2 1.34 340.0
2024-05-16 08:00 4.17 16.67 197 6.29 77.9 75.6 1.24 340.0
2024-05-16 07:30 4.40 15.38 202 7.17 77.9 75.2 1.03 342.0
2024-05-16 07:00 4.10 16.67 197 6.74 77.7 76.3 0.97 349.0
2024-05-16 06:30 4.20 11.76 296 6.25 77.2 75.9 1.19 349.0
2024-05-16 06:00 4.10 20.00 185 5.91 77.2 0.95 330.0
2024-05-16 05:30 4.56 16.67 204 5.41 77.2 0.68 332.0
2024-05-16 05:00 4.86 16.67 218 5.79 77.4 0.66 330.0
2024-05-16 04:30 4.72 16.67 208 5.73 77.4 0.54 354.0
2024-05-16 04:00 4.72 11.76 306 5.77 77.4 78.1 0.47 14.0
2024-05-16 03:30 4.76 12.50 294 5.69 77.4 79.5 0.41 49.0
2024-05-16 03:00 4.76 12.50 294 6.02 77.4 79.7 0.21 34.0
2024-05-16 02:30 4.56 16.67 187 5.64 77.4 78.8 0.29 63.0
2024-05-16 02:00 4.46 16.67 196 5.58 77.5 78.4 0.19 69.0
2024-05-16 01:30 4.69 12.50 305 6.21 77.5 0.16 70.0
2024-05-16 01:00 4.40 16.67 194 6.56 77.5 73.8 0.33 78.0
2024-05-16 00:30 4.20 16.67 193 5.93 77.5 79.2 0.31 127.0
2024-05-16 00:00 4.30 13.33 218 6.06 77.4 79.0 0.12 139.0
2024-05-15 23:30 4.27 13.33 236 6.21 77.5 77.5 0.23 115.0
2024-05-15 23:00 4.40 13.33 239 6.05 77.4 77.7 0.21 125.0
2024-05-15 22:30 4.17 13.33 261 5.82 77.4 77.4 0.19 122.0
2024-05-15 22:00 4.49 14.29 199 5.84 77.4 77.2 0.14 69.0
2024-05-15 21:30 4.36 13.33 247 5.82 77.4 77.0 0.10 19.0
2024-05-15 21:00 4.10 16.67 199 5.30 77.2 0.23 5.0
2024-05-15 20:30 4.43 14.29 202 5.88 77.4 0.31 10.0
2024-05-15 20:00 4.10 13.33 285 5.53 77.4 78.8 0.33 357.0
2024-05-15 19:30 4.43 13.33 252 6.16 77.4 78.6 0.45 351.0
2024-05-15 19:00 4.20 13.33 262 5.93 77.4 78.4 0.66 349.0
2024-05-15 18:30 4.23 13.33 266 5.84 77.2 77.4 0.91 337.0
2024-05-15 18:00 4.23 13.33 276 5.76 77.2 76.8 0.84 338.0
2024-05-15 17:30 4.23 13.33 252 5.88 77.2 77.2 0.87 341.0
2024-05-15 17:00 4.00 14.29 234 5.64 77.0 76.8 0.72 1.0
2024-05-15 16:30 3.87 13.33 274 5.32 77.2 76.6 0.66 353.0
2024-05-15 16:00 4.04 13.33 272 5.89 77.2 0.41 350.0
2024-05-15 15:30 4.04 13.33 249 5.72 77.2 74.7 0.16 319.0
2024-05-15 15:00 3.84 14.29 228 5.93 77.4 0.27 284.0
2024-05-15 14:30 3.61 13.33 286 6.76 77.2 0.27 257.0
2024-05-15 14:00 3.54 14.29 230 7.24 77.2 0.17 236.0
2024-05-15 13:30 3.38 14.29 228 7.78 77.2 0.08 251.0
2024-05-15 13:00 3.28 14.29 225 7.90 77.2 0.17 204.0
2024-05-15 12:30 3.25 14.29 253 8.03 77.2 0.39 221.0
2024-05-15 12:00 3.25 14.29 246 8.04 77.4 0.47 240.0
2024-05-15 11:30 3.35 14.29 241 8.33 77.2 73.4 0.06 262.0
2024-05-15 11:00 3.28 14.29 268 8.25 77.2 74.5 0.16 0.0
2024-05-15 10:30 3.18 14.29 272 8.58 77.4 74.5 0.37 337.0
2024-05-15 10:00 3.31 14.29 295 8.79 77.5 0.49 337.0
2024-05-15 09:30 3.02 14.29 274 8.17 77.5 0.70 331.0
2024-05-15 09:00 2.89 14.29 252 8.26 77.7 0.95 335.0
2024-05-15 08:30 3.15 14.29 279 8.88 77.5 0.99 334.0
2024-05-15 08:00 3.02 14.29 257 8.14 77.4 1.03 336.0
2024-05-15 07:30 3.05 14.29 278 8.50 77.4 1.26 333.0
2024-05-15 07:00 2.76 14.29 223 7.80 77.9 72.0 1.38 329.0
2024-05-15 06:30 2.76 13.33 210 7.20 77.5 71.4 1.38 333.0
2024-05-15 06:00 2.92 13.33 224 6.38 77.5 1.01 2.0
2024-05-15 05:30 2.92 14.29 271 7.45 77.7 76.3 0.78 353.0
2024-05-15 05:00 2.92 11.76 216 6.97 77.7 75.7 0.78 13.0
2024-05-15 04:30 2.99 11.76 261 6.96 77.9 0.70 355.0
2024-05-15 04:00 3.12 11.11 233 6.77 77.9 0.43 10.0
2024-05-15 03:30 3.08 12.50 224 6.44 77.7 0.35 19.0
2024-05-15 03:00 3.05 11.76 208 6.22 78.1 77.0 0.17 71.0
2024-05-15 02:30 3.44 15.38 208 6.99 78.1 77.5 0.27 90.0
2024-05-15 02:00 3.28 13.33 189 6.50 78.1 77.9 0.37 146.0
2024-05-15 01:30 3.38 11.76 250 6.57 77.7 78.6 0.52 170.0
2024-05-15 01:00 3.05 12.50 249 6.49 78.1 78.3 0.43 183.0
2024-05-15 00:30 3.28 12.50 227 7.08 78.1 78.1 0.41 170.0
2024-05-15 00:00 2.95 11.76 235 6.72 77.5 77.4 0.37 176.0
2024-05-14 23:30 3.05 12.50 265 7.19 77.4 0.27 173.0
2024-05-14 23:00 2.79 12.50 240 6.69 77.2 73.9 0.37 169.0
2024-05-14 22:30 3.05 11.76 220 6.38 77.0 75.2 0.37 184.0
2024-05-14 22:00 2.95 12.50 243 6.52 77.0 76.3 0.41 217.0
2024-05-14 21:30 2.92 12.50 240 6.86 77.2 0.43 219.0
2024-05-14 21:00 2.72 12.50 259 6.87 77.2 0.47 343.0
2024-05-14 20:30 2.76 12.50 273 7.01 77.2 76.5 0.43 333.0
2024-05-14 20:00 2.62 13.33 211 6.87 77.2 78.1 0.49 329.0
2024-05-14 19:30 2.62 12.50 211 6.66 77.2 77.5 0.68 332.0
2024-05-14 19:00 2.59 13.33 214 6.98 77.2 77.0 0.80 324.0
2024-05-14 18:30 2.46 14.29 212 7.13 77.2 76.1 0.82 319.0
2024-05-14 18:00 2.56 12.50 197 7.32 77.2 77.2 0.91 322.0
2024-05-14 17:30 2.53 13.33 202 7.20 77.0 74.8 1.05 328.0
2024-05-14 17:00 2.69 13.33 210 7.45 77.0 1.05 313.0
2024-05-14 16:30 2.82 13.33 206 7.07 76.6 0.93 317.0
2024-05-14 16:00 2.62 13.33 209 6.38 76.6 71.6 0.70 333.0
2024-05-14 15:30 2.62 12.50 201 6.92 76.8 75.4 0.74 336.0
2024-05-14 15:00 2.66 13.33 220 7.21 77.0 75.2 0.76 337.0
2024-05-14 14:30 2.82 12.50 193 7.28 77.0 75.0 0.58 330.0
2024-05-14 14:00 2.99 13.33 217 7.48 77.0 75.0 0.43 356.0
2024-05-14 13:30 2.92 13.33 228 7.31 77.2 75.0 0.35 12.0
2024-05-14 13:00 3.05 13.33 250 7.87 77.2 75.2 0.39 34.0
2024-05-14 12:30 2.92 13.33 211 7.57 77.4 75.0 0.31 57.0
2024-05-14 12:00 2.99 13.33 254 8.10 77.4 74.5 0.33 66.0
2024-05-14 11:30 3.02 13.33 240 8.18 77.2 75.0 0.25 109.0
2024-05-14 11:00 2.92 13.33 225 8.18 77.2 75.0 0.39 149.0
2024-05-14 10:30 3.08 13.33 234 8.80 77.4 75.6 0.23 161.0
2024-05-14 10:00 2.99 12.50 252 8.49 77.4 75.7 0.10 307.0
2024-05-14 09:30 3.15 13.33 278 8.73 77.7 75.4 0.52 1.0
2024-05-14 09:00 2.76 14.29 210 7.71 77.5 75.6 0.68 357.0
2024-05-14 08:30 2.53 12.50 215 7.67 77.5 75.0 0.80 342.0
2024-05-14 08:00 2.66 14.29 208 8.08 77.7 75.0 0.82 330.0
2024-05-14 07:30 2.46 13.33 205 7.58 77.7 0.93 335.0
2024-05-14 07:00 2.43 12.50 197 7.21 77.5 1.05 327.0
2024-05-14 06:30 2.49 14.29 233 7.35 77.5 1.24 340.0
2024-05-14 06:00 2.62 13.33 202 7.34 77.5 71.1 1.09 332.0
2024-05-14 05:30 2.36 13.33 213 7.21 77.7 74.3 1.42 337.0
2024-05-14 05:00 2.49 13.33 218 7.91 78.1 76.8 1.26 338.0
2024-05-14 04:30 2.59 14.29 215 7.83 78.3 78.1 1.36 337.0
2024-05-14 04:00 2.66 13.33 217 7.38 78.3 78.3 1.38 336.0
2024-05-14 03:30 2.62 13.33 212 7.16 77.5 77.5 0.97 325.0
2024-05-14 03:00 3.02 14.29 216 6.44 77.7 77.2 0.37 309.0
2024-05-14 02:30 3.05 13.33 204 6.19 77.7 77.5 0.25 302.0
2024-05-14 02:00 2.99 13.33 195 6.42 77.7 78.6 0.16 318.0
2024-05-14 01:30 2.89 13.33 203 5.95 77.7 76.5 0.14 335.0
2024-05-14 01:00 2.79 12.50 194 5.54 77.7 76.3 0.14 330.0
2024-05-14 00:30 2.89 14.29 213 5.67 77.9 76.5 0.21 314.0
2024-05-14 00:00 2.95 13.33 193 5.73 77.9 78.3 0.27 304.0
2024-05-13 23:30 3.12 13.33 204 5.87 77.7 77.9 0.37 316.0
2024-05-13 23:00 3.18 13.33 196 6.24 77.7 77.5 0.17 272.0
2024-05-13 22:30 3.05 13.33 185 6.09 77.7 77.4 0.14 90.0
2024-05-13 22:00 3.05 14.29 206 6.80 77.5 78.3 0.19 188.0
2024-05-13 21:30 2.99 13.33 193 6.95 77.4 78.1 0.25 224.0
2024-05-13 21:00 2.99 14.29 205 6.73 77.5 77.5 0.14 253.0
2024-05-13 20:30 3.12 13.33 185 6.92 77.4 78.1 0.06 255.0
2024-05-13 20:00 3.18 14.29 229 7.23 77.4 78.3 0.29 340.0
2024-05-13 19:30 3.25 13.33 194 7.21 77.4 78.1 0.41 328.0
2024-05-13 19:00 3.22 14.29 233 7.89 77.4 79.3 0.58 333.0
2024-05-13 18:30 2.99 14.29 244 7.58 77.2 79.2 0.76 334.0
2024-05-13 18:00 2.89 13.33 206 7.65 77.4 79.2 0.87 336.0
2024-05-13 17:30 2.99 14.29 255 8.13 77.4 78.8 0.93 341.0
2024-05-13 17:00 3.15 15.38 295 8.54 77.2 77.9 1.05 340.0
2024-05-13 16:30 3.22 14.29 215 8.74 77.0 76.6 0.97 339.0
2024-05-13 16:00 3.15 14.29 203 7.66 76.6 74.1 0.78 337.0
2024-05-13 15:30 3.31 13.33 192 7.50 76.6 74.5 0.39 352.0
2024-05-13 15:00 3.25 13.33 193 6.85 76.6 75.4 0.35 346.0
2024-05-13 14:30 3.18 13.33 187 6.49 76.6 75.2 0.33 293.0
2024-05-13 14:00 3.31 14.29 180 6.57 76.8 74.8 0.31 273.0
2024-05-13 13:30 3.25 13.33 198 6.37 76.8 75.0 0.37 250.0
2024-05-13 13:00 3.31 13.33 187 6.48 76.6 75.4 0.23 187.0
2024-05-13 12:30 3.12 14.29 199 6.86 76.6 75.4 0.37 192.0
2024-05-13 12:00 3.31 13.33 201 7.46 76.8 75.4 0.33 175.0
2024-05-13 11:30 2.95 13.33 202 7.03 77.0 0.23 197.0
2024-05-13 11:00 3.38 13.33 189 7.75 77.0 0.29 181.0
2024-05-13 10:30 3.15 12.50 200 7.16 77.0 74.5 0.37 194.0
2024-05-13 10:00 3.22 13.33 207 7.32 77.0 74.8 0.37 205.0
2024-05-13 09:30 3.28 13.33 198 7.66 77.2 74.1 0.35 229.0
2024-05-13 09:00 3.67 14.29 197 7.86 77.2 0.37 262.0
2024-05-13 08:30 3.38 14.29 197 7.81 77.4 0.39 282.0
2024-05-13 08:00 2.99 13.33 197 8.24 77.4 76.3 0.41 298.0
2024-05-13 07:30 3.18 14.29 199 8.55 77.5 76.1 0.43 318.0
2024-05-13 07:00 3.05 14.29 204 8.32 77.5 76.1 0.43 329.0
2024-05-13 06:30 3.28 14.29 199 8.40 77.5 76.1 0.45 333.0
2024-05-13 06:00 3.02 14.29 202 8.04 77.5 76.5 0.45 340.0
2024-05-13 05:30 3.15 14.29 194 7.89 77.4 76.1 0.70 336.0
2024-05-13 05:00 3.31 14.29 203 8.50 77.5 75.9 0.82 334.0
2024-05-13 04:30 3.15 14.29 205 7.78 77.4 77.9 0.93 339.0
2024-05-13 04:00 3.31 14.29 201 7.82 77.5 79.0 1.09 339.0
2024-05-13 03:30 3.02 13.33 205 7.74 77.2 77.2 1.34 341.0
2024-05-13 03:00 3.05 14.29 196 8.39 77.2 79.5 1.05 335.0
2024-05-13 02:30 3.12 14.29 203 7.24 77.4 79.0 0.72 330.0
2024-05-13 02:00 3.71 14.29 203 7.35 77.4 78.8 0.52 328.0
2024-05-13 01:30 3.54 14.29 189 7.14 77.5 78.6 0.41 326.0
2024-05-13 01:00 3.44 14.29 204 6.92 77.4 78.4 0.19 316.0
2024-05-13 00:30 3.64 14.29 200 7.32 77.4 78.3 0.10 296.0
2024-05-13 00:00 3.67 14.29 201 7.23 77.2 78.1 0.06 252.0
2024-05-12 23:30 3.67 14.29 192 7.21 77.2 77.9 0.16 186.0
2024-05-12 23:00 3.64 14.29 197 7.41 77.0 77.5 0.25 215.0
2024-05-12 22:30 3.81 14.29 200 7.56 77.0 77.4 0.19 184.0
2024-05-12 22:00 3.74 14.29 200 7.20 77.0 76.8 0.17 185.0
2024-05-12 21:30 3.94 14.29 194 7.53 76.8 77.0 0.17 203.0
2024-05-12 21:00 3.77 14.29 199 7.03 76.8 77.4 0.06 187.0
2024-05-12 20:30 3.97 14.29 199 7.58 76.8 77.7 0.10 252.0
2024-05-12 20:00 3.97 14.29 202 7.92 76.8 78.4 0.16 237.0
2024-05-12 19:30 3.77 14.29 194 7.89 76.8 78.8 0.10 272.0
2024-05-12 19:00 3.58 14.29 199 8.58 76.8 78.6 0.12 295.0
2024-05-12 18:30 3.61 14.29 199 8.28 77.0 78.3 0.19 314.0
2024-05-12 18:00 3.35 14.29 190 7.81 77.0 78.1 0.21 324.0
2024-05-12 17:30 3.84 14.29 196 8.30 77.0 77.9 0.33 322.0
2024-05-12 17:00 3.90 14.29 207 8.27 77.0 76.3 0.52 325.0
2024-05-12 16:30 4.04 14.29 202 8.73 77.0 75.9 0.84 337.0
2024-05-12 16:00 3.54 14.29 204 8.74 76.8 73.8 0.97 338.0
2024-05-12 15:30 3.74 9.09 309 8.44 76.8 73.9 1.32 351.0
2024-05-12 15:00 4.04 14.29 208 9.17 76.3 74.5 0.82 327.0
2024-05-12 14:30 3.94 14.29 201 9.28 76.5 74.5 0.31 283.0
2024-05-12 14:00 3.67 14.29 197 8.80 76.3 74.3 0.43 289.0
2024-05-12 13:30 3.67 15.38 200 8.84 76.3 74.5 0.43 322.0
2024-05-12 13:00 3.90 14.29 198 9.15 76.3 73.9 0.43 317.0
2024-05-12 12:30 3.64 14.29 195 9.06 76.5 73.6 0.39 350.0
2024-05-12 12:00 3.44 14.29 197 8.75 76.5 73.9 0.31 359.0
2024-05-12 11:30 3.94 14.29 194 9.79 76.5 0.19 47.0
2024-05-12 11:00 3.51 14.29 197 9.21 76.5 74.1 0.33 60.0
2024-05-12 10:30 3.87 14.29 189 9.53 76.5 73.9 0.37 80.0
2024-05-12 10:00 3.67 13.33 190 9.27 76.5 73.6 0.35 100.0
2024-05-12 09:30 4.10 15.38 202 9.86 76.5 73.8 0.41 118.0
2024-05-12 09:00 3.94 15.38 194 9.74 76.8 74.1 0.51 170.0
2024-05-12 08:30 3.97 14.29 196 9.36 76.8 73.9 0.54 175.0
2024-05-12 08:00 4.17 15.38 200 9.59 76.6 74.3 0.49 179.0
2024-05-12 07:30 3.97 14.29 196 9.22 76.8 73.8 0.47 189.0
2024-05-12 07:00 3.77 15.38 200 9.27 76.8 74.1 0.51 302.0
2024-05-12 06:30 3.71 15.38 198 9.13
2024-05-12 06:00 3.44 14.29 197 8.36 77.0 74.1 0.56 354.0
2024-05-12 05:30 3.64 14.29 198 8.91 77.0 74.8 0.80 337.0
2024-05-12 05:00 4.00 14.29 204 9.54 77.2 75.0 0.62 327.0
2024-05-12 04:30 3.35 15.38 206 8.63 77.4 77.4 0.84 325.0
2024-05-12 04:00 3.58 15.38 202 8.44 77.2 76.6 0.86 338.0
2024-05-12 03:30 4.07 15.38 205 8.50 77.2 76.3 0.99 331.0
2024-05-12 03:00 4.07 15.38 198 8.23 77.4 75.2 1.11 334.0
2024-05-12 02:30 4.07 15.38 201 8.69 77.7 76.3 1.19 329.0
2024-05-12 02:00 4.27 15.38 209 9.13 77.7 76.3 1.38 337.0
2024-05-12 01:30 3.84 15.38 208 8.27 77.4 76.6 1.07 329.0
2024-05-12 01:00 3.90 15.38 206 8.50 77.5 75.0 0.84 339.0
2024-05-12 00:30 3.90 15.38 201 8.27 77.7 75.9 0.60 354.0
2024-05-12 00:00 3.90 14.29 209 8.25 77.7 77.2 0.33 23.0
2024-05-11 23:30 3.94 14.29 200 8.29 77.7 77.4 0.23 51.0
2024-05-11 23:00 4.56 15.38 200 8.82 77.4 76.6 0.06 17.0
2024-05-11 22:30 4.07 14.29 201 8.83 77.5 77.0 0.16 76.0
2024-05-11 22:00 4.04 14.29 196 9.13 77.4 77.0 0.12 101.0
2024-05-11 21:30 4.20 15.38 192 9.32 77.2 77.0 0.29 133.0
2024-05-11 21:00 4.49 15.38 191 9.53 77.2 77.4 0.29 125.0
2024-05-11 20:30 4.23 15.38 190 9.29 77.2 77.4 0.45 155.0
2024-05-11 20:00 4.33 15.38 192 9.35 77.0 79.0 0.49 163.0
2024-05-11 19:30 4.04 10.00 302 9.07 76.8 77.9 0.51 155.0
2024-05-11 19:00 4.43 15.38 196 9.16 76.8 76.6 0.41 174.0
2024-05-11 18:30 4.79 15.38 194 9.36 76.8 76.5 0.49 189.0
2024-05-11 18:00 4.59 10.00 309 9.01 76.8 76.1 0.06 126.0
2024-05-11 17:30 4.33 10.00 312 9.21 76.8 75.4 0.10 330.0
2024-05-11 17:00 4.20 9.52 306 8.82 77.0 76.1 0.41 328.0
2024-05-11 16:30 4.00 15.38 201 9.12 76.8 73.4 0.68 342.0
2024-05-11 16:00 4.36 15.38 205 9.45 77.0 74.1 0.89 332.0
2024-05-11 15:30 3.94 15.38 211 9.26 77.0 1.13 330.0
2024-05-11 15:00 3.54 15.38 209 9.44 77.0 1.48 338.0
2024-05-11 14:30 3.18 15.38 206 9.34 77.0 1.59 334.0
2024-05-11 14:00 3.44 15.38 206 10.03 76.6 73.4 0.97 338.0
2024-05-11 13:30 3.31 15.38 200 9.19 76.6 73.8 0.78 327.0
2024-05-11 13:00 3.54 15.38 199 9.37 76.8 73.8 0.86 312.0
2024-05-11 12:30 3.90 15.38 199 9.42 76.8 74.5 0.54 321.0
2024-05-11 12:00 4.00 15.38 206 9.52 77.2 74.8 0.31 313.0
2024-05-11 11:30 3.90 15.38 201 8.95 77.2 75.4 0.25 253.0
2024-05-11 11:00 4.23 15.38 200 9.43 77.2 75.4 0.10 287.0
2024-05-11 10:30 4.07 15.38 204 9.82 77.2 74.8 0.29 196.0
2024-05-11 10:00 3.81 9.09 263 9.00 77.4 74.8 0.39 195.0
2024-05-11 09:30 3.74 15.38 204 9.46 77.4 75.2 0.39 201.0
2024-05-11 09:00 3.71 16.67 192 9.28 77.2 75.6 0.56 185.0
2024-05-11 08:30 3.44 15.38 197 9.72 77.2 75.4 0.68 197.0
2024-05-11 08:00 3.71 15.38 203 9.96 77.2 74.1 0.39 155.0
2024-05-11 07:30 3.31 15.38 198 9.38 77.2 74.3 0.43 169.0
2024-05-11 07:00 3.25 15.38 197 8.88 77.2 75.0 0.43 177.0
2024-05-11 06:30 3.28 15.38 194 8.33 77.2 75.9 0.35 160.0
2024-05-11 06:00 3.05 15.38 194 7.78 77.4 76.5 0.29 154.0
2024-05-11 05:30 3.25 15.38 194 8.68 77.5 0.27 128.0
2024-05-11 05:00 2.79 15.38 195 8.50 77.7 76.8 0.33 136.0
2024-05-11 04:30 3.35 15.38 195 9.95 77.7 77.0 0.21 123.0
2024-05-11 04:00 2.85 15.38 194 8.10 77.7 81.3 0.17 328.0
2024-05-11 03:30 2.79 16.67 193 7.46 77.9 78.8 0.27 318.0
2024-05-11 03:00 3.08 15.38 196 7.65 77.7 79.9 0.58 351.0
2024-05-11 02:30 2.99 15.38 189 6.80 77.7 79.2 0.74 354.0
2024-05-11 02:00 3.41 15.38 202 7.46 77.9 77.7 0.45 343.0
2024-05-11 01:30 3.12 16.67 197 7.46 77.9 77.5 0.54 330.0
2024-05-11 01:00 3.58 16.67 194 7.92 77.7 77.0 0.52 349.0
2024-05-11 00:30 3.28 15.38 198 7.51 77.7 77.0 0.51 17.0
2024-05-11 00:00 3.31 15.38 191 7.49 78.1 77.0 0.39 28.0
2024-05-10 23:30 3.22 15.38 192 7.06 77.9 0.49 41.0
2024-05-10 23:00 3.41 15.38 196 7.04 78.1 77.0 0.31 77.0
2024-05-10 22:30 3.35 15.38 194 7.42 77.7 77.0 0.23 22.0
2024-05-10 22:00 3.35 15.38 188 7.56 77.5 76.8 0.17 80.0
2024-05-10 21:30 3.48 16.67 184 7.59 78.1 77.5 0.35 102.0
2024-05-10 21:00 3.71 15.38 194 8.03 77.7 75.9 0.29 121.0
2024-05-10 20:30 3.44 16.67 190 8.07 77.5 76.3 0.29 142.0
2024-05-10 20:00 3.15 15.38 191 8.30 77.5 76.3 0.33 169.0
2024-05-10 19:30 3.35 15.38 198 8.92 77.7 76.3 0.19 120.0
2024-05-10 19:00 3.58 16.67 194 9.85 77.5 76.3 0.12 87.0
2024-05-10 18:30 3.58 16.67 191 10.09 77.4 76.1 0.16 130.0
2024-05-10 18:00 3.58 16.67 195 9.66 77.4 77.0 0.14 137.0
2024-05-10 17:30 3.25 16.67 194 8.64 77.4 76.8 0.12 137.0
2024-05-10 17:00 3.31 15.38 200 8.67 77.4 75.9 0.25 100.0
2024-05-10 16:30 3.12 16.67 200 8.64 77.4 74.7 0.60 338.0
2024-05-10 16:00 3.02 16.67 204 8.55 77.4 74.1 0.91 335.0
2024-05-10 15:30 3.28 16.67 209 9.95 77.4 74.3 1.21 334.0
2024-05-10 15:00 2.85 16.67 204 8.61 77.4 74.3 1.34 336.0
2024-05-10 14:30 3.44 16.67 203 10.67 77.2 74.3 1.40 333.0
2024-05-10 14:00 2.92 16.67 205 10.34 77.4 74.3 1.69 331.0
2024-05-10 13:30 2.82 16.67 207 10.05 77.2 74.1 1.57 330.0
2024-05-10 13:00 2.92 16.67 203 10.44 76.8 74.1 1.22 339.0
2024-05-10 12:30 2.92 16.67 205 10.11 76.8 74.1 0.72 332.0
2024-05-10 12:00 3.28 16.67 207 9.81 76.8 74.1 0.68 339.0
2024-05-10 11:30 3.18 16.67 206 9.01 76.6 73.9 0.51 333.0
2024-05-10 11:00 3.22 16.67 199 8.89 76.8 73.8 0.33 328.0
2024-05-10 10:30 3.64 16.67 201 9.05 76.6 73.9 0.37 328.0
2024-05-10 10:00 3.48 16.67 202 8.92 76.6 74.3 0.12 259.0
2024-05-10 09:30 3.71 16.67 202 8.92 76.8 74.3 0.19 187.0
2024-05-10 09:00 3.77 16.67 201 8.87 76.8 74.1 0.35 196.0
2024-05-10 08:30 3.94 16.67 202 9.45 76.8 73.9 0.51 171.0
2024-05-10 08:00 4.00 16.67 202 9.04 77.0 74.3 0.43 184.0
2024-05-10 07:30 3.64 16.67 199 9.18 77.2 74.5 0.47 185.0
2024-05-10 07:00 3.28 16.67 199 8.75 77.2 74.5 0.29 217.0
2024-05-10 06:30 3.31 16.67 196 9.13 77.2 74.7 0.39 225.0
2024-05-10 06:00 3.38 16.67 200 9.16 77.2 74.8 0.27 291.0
2024-05-10 05:30 3.58 16.67 201 10.06 77.4 74.8 0.45 328.0
2024-05-10 05:00 3.87 16.67 204 10.38 77.4 75.2 0.35 330.0
2024-05-10 04:30 3.44 16.67 201 9.18 77.4 75.6 0.62 325.0
2024-05-10 04:00 3.15 18.18 205 8.94 77.4 0.82 335.0
2024-05-10 03:30 3.38 16.67 198 9.71 77.5 73.9 0.60 342.0
2024-05-10 03:00 3.58 16.67 198 10.43 78.1 79.7 0.74 318.0
2024-05-10 02:30 3.87 16.67 202 10.25 77.9 77.0 0.78 333.0
2024-05-10 02:00 3.48 18.18 205 9.23 77.9 76.3 0.95 337.0
2024-05-10 01:30 3.51 16.67 202 9.18 77.7 76.3 1.17 337.0
2024-05-10 01:00 3.54 16.67 205 9.67 78.1 76.6 0.91 343.0
2024-05-10 00:30 3.84 16.67 208 10.24 77.4 78.4 0.97 335.0
2024-05-10 00:00 3.15 18.18 205 8.81 77.4 77.7 0.66 324.0
2024-05-09 23:30 3.64 16.67 199 9.43 77.4 77.4 0.33 308.0
2024-05-09 23:00 3.58 16.67 203 8.79 77.5 77.0 0.37 274.0
2024-05-09 22:30 3.77 18.18 203 9.22 78.1 76.8 0.21 270.0
2024-05-09 22:00 3.74 18.18 201 8.93 77.5 77.4 0.10 16.0
2024-05-09 21:30 3.71 18.18 203 8.78 77.4 77.5 0.16 126.0
2024-05-09 21:00 3.61 18.18 198 8.62 77.4 77.0 0.31 184.0
2024-05-09 20:30 4.10 18.18 200 9.02 77.2 77.2 0.41 198.0
2024-05-09 20:00 4.20 18.18 200 9.75 77.2 77.7 0.47 180.0
2024-05-09 19:30 3.90 18.18 196 9.21 77.0 77.2 0.49 165.0
2024-05-09 19:00 3.51 18.18 200 8.97 77.0 77.9 0.66 173.0
2024-05-09 18:30 3.87 18.18 198 10.16 77.0 76.6 0.72 183.0
2024-05-09 18:00 4.10 18.18 189 10.83 77.0 73.8 0.56 171.0
2024-05-09 17:30 3.58 18.18 197 10.62 77.0 76.5 0.45 173.0
2024-05-09 17:00 3.94 18.18 199 11.29 77.2 75.7 0.35 160.0
2024-05-09 16:30 4.27 18.18 197 12.29 77.0 73.9 0.14 247.0
2024-05-09 16:00 4.46 18.18 199 12.35 77.0 73.9 0.10 302.0
2024-05-09 15:30 3.41 18.18 200 10.28 77.2 74.3 0.25 335.0
2024-05-09 15:00 3.28 18.18 203 9.82 77.2 74.3 0.25 336.0
2024-05-09 14:30 3.38 18.18 194 10.22 77.2 74.1 0.54 335.0
2024-05-09 14:00 3.05 18.18 196 9.85 77.2 73.9 0.41 328.0
2024-05-09 13:30 3.41 18.18 202 10.66 77.2 73.9 0.52 330.0
2024-05-09 13:00 3.44 18.18 206 10.32 77.2 74.3 0.70 339.0
2024-05-09 12:30 3.48 18.18 208 10.98 77.2 74.1 0.95 345.0
2024-05-09 12:00 3.35 18.18 204 10.98 77.2 74.1 0.78 335.0
2024-05-09 11:30 3.05 18.18 203 9.91 77.2 73.8 0.78 322.0
2024-05-09 11:00 3.18 18.18 205 9.97 77.2 74.1 0.49 307.0
2024-05-09 10:30 3.44 18.18 202 9.45 77.2 73.9 0.39 338.0
2024-05-09 10:00 3.38 18.18 201 8.81 77.2 74.1 0.25 345.0
2024-05-09 09:30 3.35 10.53 263 8.76 77.2 74.1 0.10 338.0
2024-05-09 09:00 3.18 18.18 201 8.40 77.2 74.3 0.25 128.0
2024-05-09 08:30 3.61 18.18 199 8.81 77.2 74.3 0.35 144.0
2024-05-09 08:00 3.31 18.18 200 8.14 77.2 74.7 0.58 170.0
2024-05-09 07:30 3.54 18.18 194 8.24 77.4 74.7 0.76 170.0
2024-05-09 07:00 3.25 10.53 207 7.64 77.4 75.0 0.60 178.0
2024-05-09 06:30 3.38 20.00 194 8.15 77.5 75.4 0.27 179.0
2024-05-09 06:00 3.35 20.00 200 8.36 77.5 75.7 0.25 88.0
2024-05-09 05:30 3.54 18.18 199 8.80 77.5 76.5 0.23 26.0
2024-05-09 05:00 3.61 18.18 199 8.56 77.7 76.6 0.27 339.0
2024-05-09 04:30 3.18 20.00 198 8.24 77.7 77.5 0.62 354.0
2024-05-09 04:00 3.18 20.00 195 8.74 77.7 77.2 0.49 350.0
2024-05-09 03:30 3.18 20.00 200 8.30 77.7 77.4 0.52 334.0
2024-05-09 03:00 3.08 20.00 202 7.43 77.7 78.6 0.60 339.0
2024-05-09 02:30 3.41 20.00 200 7.74 77.7 79.5 0.76 337.0
2024-05-09 02:00 3.22 20.00 202 7.16 77.9 79.5 0.84 336.0
2024-05-09 01:30 2.99 11.11 255 6.76 77.7 77.9 0.91 331.0
2024-05-09 01:00 3.51 20.00 198 8.39 77.7 78.8 1.03 345.0
2024-05-09 00:30 2.99 11.76 229 6.91 77.4 77.9 0.86 344.0
2024-05-09 00:00 3.15 20.00 200 7.54 77.2 75.2 0.80 352.0
2024-05-08 23:30 3.05 20.00 198 6.37 77.4 76.5 0.52 334.0
2024-05-08 23:00 3.02 20.00 205 6.07 77.5 76.3 0.52 317.0
2024-05-08 22:30 3.48 20.00 205 7.52 78.3 77.0 0.56 326.0
2024-05-08 22:00 3.08 20.00 205 7.22 78.3 77.4 0.39 309.0
2024-05-08 21:30 3.31 10.53 300 7.30 78.1 77.5 0.19 301.0
2024-05-08 21:00 3.31 20.00 197 7.35 77.9 77.4 0.16 128.0
2024-05-08 20:30 3.54 11.76 245 7.47 77.5 77.7 0.25 124.0
2024-05-08 20:00 3.35 20.00 194 7.55 77.2 77.9 0.33 141.0
2024-05-08 19:30 3.41 11.11 263 7.41 77.4 78.6 0.39 174.0
2024-05-08 19:00 3.22 11.11 269 7.69 77.2 77.9 0.54 185.0
2024-05-08 18:30 3.35 11.76 242 7.84 77.2 77.4 0.49 165.0
2024-05-08 18:00 3.05 12.50 235 7.53 77.2 77.4 0.56 167.0
2024-05-08 17:30 3.18 12.50 196 8.38 77.2 77.2 0.60 164.0
2024-05-08 17:00 3.15 12.50 213 8.17 77.2 76.5 0.80 159.0
2024-05-08 16:30 2.85 12.50 210 7.57 77.0 75.2 0.76 170.0
2024-05-08 16:00 3.12 12.50 204 8.06 77.2 73.6 0.62 167.0
2024-05-08 15:30 2.89 12.50 201 7.72 77.2 73.0 0.43 174.0
2024-05-08 15:00 3.12 11.76 271 7.74 77.2 73.4 0.39 165.0
2024-05-08 14:30 2.79 12.50 220 7.19 77.2 73.6 0.25 134.0
2024-05-08 14:00 2.79 13.33 202 7.05 77.2 73.8 0.16 151.0
2024-05-08 13:30 2.85 11.76 264 6.83 77.2 73.9 0.10 276.0
2024-05-08 13:00 2.95 12.50 230 7.30 77.2 73.6 0.33 324.0
2024-05-08 12:30 2.82 13.33 207 6.97 77.2 73.4 0.58 354.0
2024-05-08 12:00 2.82 13.33 210 7.31 77.2 73.8 0.91 355.0
2024-05-08 11:30 2.92 12.50 257 7.49 77.0 73.9 0.43 353.0
2024-05-08 11:00 2.79 11.76 298 6.73 77.2 74.1 0.70 329.0
2024-05-08 10:30 3.05 11.76 302 7.89 77.2 74.1 0.74 306.0
2024-05-08 10:00 2.95 12.50 248 7.61 77.2 74.1 0.37 313.0
2024-05-08 09:30 2.85 13.33 201 7.20 77.2 74.3 0.39 289.0
2024-05-08 09:00 2.76 11.76 289 7.13 77.2 74.5 0.19 192.0
2024-05-08 08:30 2.89 13.33 200 6.62 77.4 74.3 0.29 194.0
2024-05-08 08:00 3.05 13.33 206 7.02 77.4 74.5 0.41 194.0
2024-05-08 07:30 2.92 13.33 198 6.93 77.4 74.7 0.51 185.0
2024-05-08 07:00 3.02 13.33 201 6.91 77.5 75.0 0.51 162.0
2024-05-08 06:30 2.82 11.76 298 6.73 77.5 74.8 0.62 169.0
2024-05-08 06:00 3.02 13.33 201 6.85 77.7 74.8 0.66 164.0
2024-05-08 05:30 2.99 11.76 284 6.92 77.7 74.8 0.49 162.0
2024-05-08 05:00 3.02 13.33 197 6.99 77.9 75.4 0.41 179.0
2024-05-08 04:30 3.12 13.33 221 6.85 77.9 75.9 0.41 172.0
2024-05-08 04:00 3.15 12.50 283 6.34 77.9 76.6 0.29 145.0
2024-05-08 03:30 3.25 13.33 210 6.53 78.1 78.8 0.23 137.0
2024-05-08 03:00 3.41 13.33 216 6.81 78.1 79.3 0.21 131.0
2024-05-08 02:30 3.18 12.50 282 6.37 78.3 78.3 0.39 124.0
2024-05-08 02:00 3.15 12.50 296 5.90 78.1 78.4 0.37 110.0
2024-05-08 01:30 3.25 12.50 309 6.34 77.9 78.1 0.35 131.0
2024-05-08 01:00 3.08 13.33 215 5.85 77.9 77.7 0.23 120.0
2024-05-08 00:30 3.15 13.33 199 5.89 77.9 78.3 0.23 113.0
2024-05-08 00:00 3.22 11.76 303 5.90 77.9 77.7 0.39 109.0
2024-05-07 23:30 3.35 14.29 182 6.07 77.5 77.5 0.29 103.0
2024-05-07 23:00 3.18 12.50 311 5.80 77.4 77.0 0.37 115.0
2024-05-07 22:30 3.08 12.50 296 5.99 77.4 77.4 0.19 100.0
2024-05-07 22:00 3.18 13.33 222 6.09 77.4 77.2 0.19 95.0
2024-05-07 21:30 3.22 13.33 255 6.11 77.4 77.0 0.12 285.0
2024-05-07 21:00 3.38 13.33 256 6.33 77.4 79.2 0.23 261.0
2024-05-07 20:30 3.61 14.29 204 6.79 77.4 79.2 0.10 292.0
2024-05-07 20:00 3.67 13.33 277 7.07 77.4 79.2 0.02 84.0
2024-05-07 19:30 3.58 12.50 292 6.67 77.2 78.8 0.27 104.0
2024-05-07 19:00 3.64 7.69 165 6.67 77.2 77.9 0.37 144.0
2024-05-07 18:30 3.74 12.50 308 6.90 77.2 77.7 0.47 170.0
2024-05-07 18:00 3.61 7.14 162 6.78 77.2 77.7 0.49 150.0
2024-05-07 17:30 3.81 13.33 282 7.20 77.0 77.2 0.43 161.0
2024-05-07 17:00 3.38 14.29 225 7.19 77.2 76.5 0.47 130.0
2024-05-07 16:30 3.51 13.33 307 7.49 77.2 75.2 0.37 131.0
2024-05-07 16:00 3.44 14.29 242 7.22 77.2 73.9 0.39 148.0
2024-05-07 15:30 3.44 13.33 295 7.08 77.2 74.1 0.33 131.0
2024-05-07 15:00 3.61 13.33 304 7.11 77.2 74.1 0.43 112.0
2024-05-07 14:30 3.38 13.33 301 6.63 77.2 74.3 0.33 117.0
2024-05-07 14:00 3.35 12.50 311 6.31 77.2 74.5 0.23 104.0
2024-05-07 13:30 3.44 14.29 273 6.70 77.2 74.5 0.25 79.0
2024-05-07 13:00 3.48 13.33 313 6.69 77.2 74.5 0.43 68.0
2024-05-07 12:30 3.18 13.33 302 6.18 77.0 74.5 0.33 43.0
2024-05-07 12:00 3.08 14.29 246 6.33 77.0 74.1 0.08 340.0
2024-05-07 11:30 2.99 13.33 299 6.02 77.0 74.1 0.14 307.0
2024-05-07 11:00 3.31 13.33 300 6.55 77.0 74.1 0.27 272.0
2024-05-07 10:30 3.41 14.29 277 6.54 77.2 74.1 0.33 281.0
2024-05-07 10:00 3.02 13.33 309 6.06 77.2 74.1 0.37 306.0
2024-05-07 09:30 3.41 13.33 301 6.70 77.2 73.9 0.19 256.0
2024-05-07 09:00 3.35 13.33 303 6.68 77.2 74.3 0.23 277.0
2024-05-07 08:30 3.28 14.29 293 6.91 77.2 73.9 0.14 252.0
2024-05-07 08:00 3.25 14.29 294 6.78 77.2 74.3 0.19 177.0
2024-05-07 07:30 3.54 13.33 308 7.11 77.2 74.3 0.45 177.0
2024-05-07 07:00 3.05 14.29 298 5.95 77.2 74.5 0.31 159.0
2024-05-07 06:30 3.38 14.29 292 7.02 77.4 74.7 0.47 169.0
2024-05-07 06:00 3.48 13.33 296 7.07 77.4 74.7 0.52 171.0
2024-05-07 05:30 3.41 13.33 307 7.11 77.4 75.0 0.54 150.0
2024-05-07 05:00 3.12 15.38 197 6.54 77.4 75.2 0.72 149.0
2024-05-07 04:30 3.05 14.29 299 6.02 77.4 76.6 0.64 152.0
2024-05-07 04:00 3.02 14.29 308 6.27 77.4 77.5 0.45 159.0
2024-05-07 03:30 2.92 15.38 236 5.71 77.4 77.9 0.52 158.0
2024-05-07 03:00 3.22 14.29 312 6.47 77.4 78.1 0.49 150.0
2024-05-07 02:30 2.99 15.38 242 5.92 77.2 77.5 0.14 194.0
2024-05-07 02:00 3.15 14.29 313 6.27 77.4 77.0 0.41 263.0
2024-05-07 01:30 3.25 15.38 262 6.02 77.4 77.2 0.31 308.0
2024-05-07 01:00 3.31 15.38 257 6.14 77.4 77.9 0.39 300.0
2024-05-07 00:30 3.61 14.29 301 7.03 77.5 79.0 0.56 299.0
2024-05-07 00:00 3.35 15.38 289 6.62 77.4 78.8 0.62 317.0
2024-05-06 23:30 3.08 15.38 300 6.63 77.4 78.6 0.51 340.0
2024-05-06 23:00 3.18 15.38 297 6.74 77.4 78.4 0.60 332.0
2024-05-06 22:30 3.08 15.38 279 6.25 77.4 77.5 0.58 335.0
2024-05-06 22:00 2.92 15.38 280 5.69 77.4 77.5 0.56 323.0
2024-05-06 21:30 2.95 15.38 289 5.41 77.4 77.7 0.52 312.0
2024-05-06 21:00 2.62 15.38 278 4.78 77.4 77.7 0.45 299.0
2024-05-06 20:30 3.08 15.38 264 6.02 77.4 77.9 0.33 310.0
2024-05-06 20:00 2.79 15.38 206 5.13 77.4 77.5 0.33 308.0
2024-05-06 19:30 2.99 16.67 209 4.79 77.4 77.4 0.29 328.0
2024-05-06 19:00 3.18 16.67 211 4.96 77.4 77.4 0.19 328.0
2024-05-06 18:30 3.22 15.38 288 5.12 77.4 77.4 0.00 42.0
2024-05-06 18:00 3.15 16.67 197 5.27 77.4 77.2 0.27 159.0
2024-05-06 17:30 3.28 16.67 211 5.69 77.4 76.8 0.33 139.0
2024-05-06 17:00 3.05 15.38 273 5.64 77.4 76.1 0.33 128.0
2024-05-06 16:30 3.28 16.67 200 6.20 77.4 75.0 0.47 157.0
2024-05-06 16:00 3.41 8.33 164 6.40 77.2 74.3 0.60 143.0
2024-05-06 15:30 3.71 9.09 164 6.56 77.4 73.8 0.52 144.0
2024-05-06 15:00 3.71 16.67 208 6.57 77.4 73.8 0.47 148.0
2024-05-06 14:30 3.58 16.67 191 6.49 77.4 73.8 0.49 126.0
2024-05-06 14:00 3.48 16.67 202 6.17 77.4 73.9 0.43 127.0
2024-05-06 13:30 3.25 9.09 160 5.91 77.4 73.9 0.33 108.0
2024-05-06 13:00 3.61 16.67 188 6.57 77.4 74.1 0.33 81.0
2024-05-06 12:30 3.64 8.70 161 6.40 77.4 74.1 0.29 92.0
2024-05-06 12:00 3.58 16.67 197 6.15 77.4 73.9 0.35 92.0
2024-05-06 11:30 3.31 16.67 188 5.91 77.4 74.1 0.47 61.0
2024-05-06 11:00 3.15 16.67 194 5.81 77.4 74.1 0.41 49.0
2024-05-06 10:30 3.08 16.67 208 5.76 77.4 74.1 0.39 75.0
2024-05-06 10:00 3.18 16.67 182 5.95 77.0 73.9 0.58 297.0
2024-05-06 09:30 3.05 16.67 186 6.29 77.4 74.1 0.27 310.0
2024-05-06 09:00 3.22 9.09 151 6.74 77.4 74.3 0.23 10.0
2024-05-06 08:30 3.02 18.18 176 7.39 77.4 74.3 0.49 327.0
2024-05-06 08:00 2.95 18.18 182 7.05 77.4 74.3 0.14 159.0
2024-05-06 07:30 2.76 18.18 179 7.12 77.4 74.1 0.19 172.0
2024-05-06 07:00 3.25 9.52 173 7.19 77.4 73.9 0.27 163.0
2024-05-06 06:30 3.25 9.09 163 6.27 77.4 75.0 0.33 144.0
2024-05-06 06:00 3.35 10.00 173 6.32 77.5 75.4 0.39 150.0
2024-05-06 05:30 3.54 18.18 176 6.86 77.5 75.7 0.54 172.0
2024-05-06 05:00 3.51 10.00 174 6.50 77.5 76.3 0.74 154.0
2024-05-06 04:30 3.54 9.09 160 6.47 77.5 76.6 0.97 148.0
2024-05-06 04:00 3.97 18.18 175 7.04 77.5 77.4 1.13 149.0
2024-05-06 03:30 3.74 9.52 166 6.55 77.5 78.1 0.82 149.0
2024-05-06 03:00 3.58 9.09 167 6.35 77.5 78.3 0.60 141.0
2024-05-06 02:30 3.51 9.09 165 6.27 77.5 79.2 0.52 151.0
2024-05-06 02:00 3.41 18.18 176 6.22 77.5 79.0 0.58 149.0
2024-05-06 01:30 3.18 18.18 186 5.93 77.4 79.3 0.54 150.0
2024-05-06 01:00 3.38 18.18 173 6.10 77.4 79.5 0.49 141.0
2024-05-06 00:30 3.44 18.18 169 6.05 77.4 79.5 0.47 135.0
2024-05-06 00:00 3.44 18.18 172 6.22 77.4 79.7 0.39 148.0
2024-05-05 23:30 3.38 18.18 182 6.09 77.4 79.5 0.39 165.0
2024-05-05 23:00 3.08 12.50 290 5.61 77.2 79.0 0.29 152.0
2024-05-05 22:30 3.05 9.52 168 5.32 77.2 78.6 0.16 235.0
2024-05-05 22:00 3.41 18.18 175 5.90 77.2 78.6 0.12 266.0
2024-05-05 21:30 3.25 18.18 192 5.73 77.2 78.4 0.21 309.0
2024-05-05 21:00 3.02 18.18 173 5.01 77.2 78.3 0.25 274.0
2024-05-05 20:30 3.05 11.11 234 5.06 77.2 78.3 0.14 339.0
2024-05-05 20:00 3.18 11.11 260 5.50 77.2 78.1 0.16 316.0
2024-05-05 19:30 3.15 11.76 256 5.40 77.2 77.4 0.10 195.0
2024-05-05 19:00 3.08 11.76 271 5.20 77.2 77.4 0.12 150.0
2024-05-05 18:30 3.18 11.76 283 5.13 77.2 77.0 0.16 190.0
2024-05-05 18:00 3.58 18.18 199 5.84 77.2 76.5 0.27 169.0
2024-05-05 17:30 3.51 8.00 162 6.24 77.2 76.3 0.27 162.0
2024-05-05 17:00 3.54 9.09 167 5.91 77.2 75.4 0.31 178.0
2024-05-05 16:30 3.81 8.33 163 6.44 77.2 74.3 0.43 163.0
2024-05-05 16:00 3.61 8.33 162 6.62 77.2 73.2 0.54 151.0
2024-05-05 15:30 3.38 7.69 165 6.40 77.2 73.6 0.64 148.0
2024-05-05 15:00 3.90 8.70 158 6.82 77.2 73.6 0.49 152.0
2024-05-05 14:30 3.90 9.52 169 6.76
2024-05-05 14:00 3.81 9.52 169 6.81 77.2 0.58 131.0
2024-05-05 13:30 4.04 9.09 163 6.78 77.2 73.4 0.51 138.0
2024-05-05 13:00 3.84 9.09 165 6.53 77.2 73.9 0.54 131.0
2024-05-05 12:30 3.71 8.70 162 6.58 77.4 74.1 0.47 135.0
2024-05-05 12:00 3.97 13.33 303 6.73 77.2 74.3 0.31 134.0
2024-05-05 11:30 3.84 9.52 178 6.39 77.4 74.1 0.25 129.0
2024-05-05 11:00 4.04 8.00 168 6.31 77.4 73.8 0.29 97.0
2024-05-05 10:30 4.10 9.09 169 6.13 77.4 73.9 0.21 73.0
2024-05-05 10:00 4.69 12.50 303 6.37 77.4 73.9 0.35 57.0
2024-05-05 09:30 4.33 12.50 303 6.42 77.4 75.0 0.47 47.0
2024-05-05 09:00 3.94 13.33 303 6.33 77.4 75.0 0.37 52.0
2024-05-05 08:30 4.10 13.33 291 6.20 77.2 74.7 0.29 10.0
2024-05-05 08:00 4.46 13.33 299 6.79 77.2 74.8 0.45 355.0
2024-05-05 07:30 4.20 13.33 315 6.85 77.4 75.0 0.51 340.0
2024-05-05 07:00 3.81 13.33 318 6.75 77.4 75.0 0.47 331.0
2024-05-05 06:30 3.87 13.33 300 7.31 77.4 74.8 0.35 291.0
2024-05-05 06:00 3.58 13.33 303 6.96 77.4 75.0 0.23 188.0
2024-05-05 05:30 3.51 13.33 296 6.61 77.4 75.0 0.33 142.0
2024-05-05 05:00 3.51 12.50 274 5.75 77.4 75.4 0.43 144.0
2024-05-05 04:30 3.90 13.33 284 6.01 77.4 77.0 0.74 144.0
2024-05-05 04:00 3.94 13.33 302 6.20 77.4 77.4 0.78 151.0
2024-05-05 03:30 4.27 13.33 295 6.59 77.4 78.3 0.87 154.0
2024-05-05 03:00 4.49 7.69 159 6.81 77.5 78.1 0.87 149.0
2024-05-05 02:30 4.72 8.33 160 6.93 77.5 78.1 0.72 150.0
2024-05-05 02:00 4.43 8.70 160 6.82 77.5 77.9 0.68 143.0
2024-05-05 01:30 4.46 8.70 156 6.59 77.5 78.3 0.58 151.0
2024-05-05 01:00 4.63 9.09 167 6.87 77.5 78.4 0.62 144.0
2024-05-05 00:30 4.82 9.09 165 7.01 77.5 78.4 0.51 146.0
2024-05-05 00:00 4.72 14.29 306 6.87 77.5 78.4 0.41 149.0
2024-05-04 23:30 4.20 14.29 306 6.50 77.4 77.2 0.33 145.0
2024-05-04 23:00 4.49 13.33 293 6.29 77.4 77.9 0.16 169.0
2024-05-04 22:30 4.46 14.29 291 6.64 77.4 77.5 0.10 162.0
2024-05-04 22:00 4.46 14.29 294 6.74 77.2 77.2 0.12 111.0
2024-05-04 21:30 4.46 14.29 291 6.95 77.2 76.8 0.10 210.0
2024-05-04 21:00 3.87 15.38 290 6.26 77.2 75.9 0.08 189.0
2024-05-04 20:30 4.17 14.29 295 6.31 77.2 77.2 0.21 294.0
2024-05-04 20:00 4.17 14.29 307 6.21 77.2 77.9 0.19 293.0
2024-05-04 19:30 4.27 14.29 294 6.02 77.2 77.5 0.17 296.0
2024-05-04 19:00 4.07 14.29 306 5.96 77.2 77.7 0.16 282.0
2024-05-04 18:30 3.90 14.29 298 6.02 77.2 76.8 0.14 301.0
2024-05-04 18:00 3.97 13.33 291 6.27 77.2 77.2 0.19 305.0
2024-05-04 17:30 3.97 15.38 281 6.55 77.2 76.8 0.08 276.0
2024-05-04 17:00 3.94 14.29 288 6.62 77.2 74.7 0.04 288.0
2024-05-04 16:30 3.90 14.29 279 6.62 77.2 74.3 0.16 187.0
2024-05-04 16:00 3.77 13.33 277 6.00 77.2 73.9 0.23 200.0
2024-05-04 15:30 3.90 14.29 288 6.20 77.2 73.8 0.49 168.0
2024-05-04 15:00 3.81 14.29 286 6.44 77.2 73.8 0.43 144.0
2024-05-04 14:30 4.00 14.29 285 6.65 77.2 74.3 0.47 146.0
2024-05-04 14:00 4.10 14.29 288 6.60 77.2 74.5 0.41 155.0
2024-05-04 13:30 3.94 15.38 274 6.26 77.2 74.3 0.08 164.0
2024-05-04 13:00 3.84 14.29 274 6.22 77.4 73.9 0.25 137.0
2024-05-04 12:30 3.81 14.29 273 6.20 77.4 73.8 0.23 127.0
2024-05-04 12:00 3.77 15.38 255 6.08 77.4 73.4 0.17 139.0
2024-05-04 11:30 3.84 15.38 233 5.74 77.4 74.3 0.19 124.0
2024-05-04 11:00 4.04 15.38 265 5.70 77.4 74.7 0.16 109.0
2024-05-04 10:30 3.71 14.29 254 5.37 77.4 74.7 0.17 99.0
2024-05-04 10:00 3.35 15.38 255 5.05 77.4 74.7 0.23 104.0
2024-05-04 09:30 3.31 15.38 278 5.21 77.4 74.5 0.21 70.0
2024-05-04 09:00 3.12 15.38 275 5.38 77.4 74.5 0.25 41.0
2024-05-04 08:30 3.22 14.29 253 5.40 77.4 74.8 0.37 10.0
2024-05-04 08:00 3.28 15.38 285 5.30 77.4 75.2 0.33 11.0
2024-05-04 07:30 3.15 15.38 270 5.43 77.4 75.2 0.31 58.0
2024-05-04 07:00 3.15 15.38 290 5.52 77.4 75.7 0.25 336.0
2024-05-04 06:30 3.25 15.38 285 5.49 77.4 75.7 0.43 332.0
2024-05-04 06:00 3.54 15.38 272 5.84 77.4 75.9 0.33 335.0
2024-05-04 05:30 3.54 7.14 160 5.87 77.4 76.3 0.12 304.0
2024-05-04 05:00 3.12 8.33 164 5.65 77.4 76.8 0.10 351.0
2024-05-04 04:30 3.05 12.50 187 5.59 77.4 77.0 0.10 123.0
2024-05-04 04:00 3.25 15.38 236 5.67 77.4 77.4 0.17 154.0
2024-05-04 03:30 3.25 11.76 184 4.95 77.4 77.7 0.31 167.0
2024-05-04 03:00 3.51 11.76 177 5.63 77.5 77.9 0.39 157.0
2024-05-04 02:30 3.31 8.00 167 5.31 77.5 78.6 0.58 152.0
2024-05-04 02:00 3.48 8.70 170 5.48 77.5 79.0 0.58 165.0
2024-05-04 01:30 3.41 15.38 217 5.58 77.5 80.2 0.62 166.0
2024-05-04 01:00 3.51 8.00 165 5.87 77.5 80.1 0.60 167.0
2024-05-04 00:30 3.35 8.00 155 5.70 77.5 79.9 0.64 157.0
2024-05-04 00:00 3.38 8.00 160 5.50 77.5 79.5 0.54 170.0
2024-05-03 23:30 3.08 7.69 160 5.22 77.5 79.9 0.49 156.0
2024-05-03 23:00 3.18 7.41 157 5.39 77.5 79.5 0.58 151.0
2024-05-03 22:30 3.28 7.69 158 5.37 77.5 79.2 0.52 160.0
2024-05-03 22:00 3.22 9.09 162 5.56 77.5 79.3 0.39 160.0
2024-05-03 21:30 3.05 7.14 166 5.34 77.4 78.6 0.27 152.0
2024-05-03 21:00 3.28 7.14 168 5.49 77.4 77.9 0.23 136.0
2024-05-03 20:30 3.15 7.41 156 5.05 77.4 79.2 0.31 155.0
2024-05-03 20:00 3.18 8.33 161 5.27 77.4 78.8 0.29 168.0
2024-05-03 19:30 3.08 8.70 167 5.08 77.4 79.0 0.27 160.0
2024-05-03 19:00 3.05 8.00 165 5.45 77.4 78.4 0.12 142.0
2024-05-03 18:30 3.05 6.67 171 5.30 77.4 78.1 0.25 185.0
2024-05-03 18:00 3.15 8.00 168 5.56 77.4 77.5 0.19 185.0
2024-05-03 17:30 3.08 8.00 174 5.65 77.4 77.2 0.25 218.0
2024-05-03 17:00 3.22 7.41 174 6.12 77.4 76.3 0.27 186.0
2024-05-03 16:30 3.12 7.41 173 6.21 77.2 74.7 0.19 187.0
2024-05-03 16:00 3.41 8.00 178 6.61 77.2 74.1 0.17 204.0
2024-05-03 15:30 3.18 8.70 176 6.03 77.4 74.3 0.25 170.0
2024-05-03 15:00 3.25 7.41 168 5.93 77.4 74.3 0.27 168.0
2024-05-03 14:30 3.35 7.69 171 6.10 77.4 74.3 0.35 165.0
2024-05-03 14:00 3.64 7.14 172 6.26 77.4 74.3 0.45 167.0
2024-05-03 13:30 3.67 7.41 165 6.18 77.4 74.3 0.43 160.0
2024-05-03 13:00 4.00 7.14 165 6.30 77.4 74.3 0.54 164.0
2024-05-03 12:30 3.90 6.90 157 6.20 77.4 74.3 0.49 165.0
2024-05-03 12:00 4.10 7.14 156 6.19 77.4 74.1 0.58 165.0
2024-05-03 11:30 3.90 7.14 158 5.95 77.4 74.3 0.39 165.0
2024-05-03 11:00 3.51 7.69 168 5.75 77.4 74.5 0.39 159.0
2024-05-03 10:30 3.22 7.69 174 5.94 77.4 74.5 0.33 161.0
2024-05-03 10:00 3.08 7.69 173 6.04 77.4 73.9 0.27 162.0
2024-05-03 09:30 2.69 8.00 178 5.84 77.4 73.8 0.29 152.0
2024-05-03 09:00 2.76 14.29 205 5.70 77.4 73.4 0.17 99.0
2024-05-03 08:30 2.59 8.33 178 5.57 77.4 73.4 0.49 0.0
2024-05-03 08:00 2.59 7.69 176 5.81 77.4 73.0 0.43 335.0
2024-05-03 07:30 2.49 14.29 202 5.86 77.4 73.9 0.51 322.0
2024-05-03 07:00 2.56 6.67 164 6.04 77.4 73.6 0.49 334.0
2024-05-03 06:30 2.40 9.52 195 6.28 77.5 73.2 0.33 16.0
2024-05-03 06:00 2.43 15.38 187 5.68 77.5 73.2 0.37 47.0
2024-05-03 05:30 2.69 6.45 165 5.55 77.5 74.5 0.21 106.0
2024-05-03 05:00 2.76 7.69 168 5.59 77.5 74.8 0.17 174.0
2024-05-03 04:30 3.02 7.69 186 5.06 77.5 0.31 213.0
2024-05-03 04:00 2.99 13.33 190 5.19 77.7 76.3 0.43 206.0
2024-05-03 03:30 3.25 7.14 167 5.70 77.7 77.9 0.43 177.0
2024-05-03 03:00 2.99 12.50 176 5.44 77.5 79.3 0.51 191.0
2024-05-03 02:30 2.95 13.33 172 5.20 77.5 79.5 0.54 205.0
2024-05-03 02:00 2.85 14.29 188 5.23 77.7 78.8 0.60 195.0
2024-05-03 01:30 3.08 7.14 167 5.67 77.7 78.4 0.64 173.0
2024-05-03 01:00 2.99 14.29 191 6.01 77.9 79.5 0.72 166.0
2024-05-03 00:30 2.69 7.69 178 5.71 77.7 79.5 0.91 158.0
2024-05-03 00:00 2.76 12.50 182 6.20 77.7 79.5 0.72 153.0
2024-05-02 23:30 2.82 13.33 179 6.06 77.7 79.3 0.52 141.0
2024-05-02 23:00 2.92 13.33 181 5.88 77.7 79.3 0.43 145.0
2024-05-02 22:30 2.85 12.50 176 5.79 77.5 79.3 0.29 139.0
2024-05-02 22:00 2.82 14.29 201 5.76 77.5 79.3 0.08 109.0
2024-05-02 21:30 2.76 12.50 194 5.43 77.5 79.5 0.12 186.0
2024-05-02 21:00 2.76 14.29 192 5.78 77.5 79.5 0.08 131.0
2024-05-02 20:30 2.79 13.33 186 5.79 77.5 79.2 0.14 4.0
2024-05-02 20:00 2.89 13.33 189 5.99 77.5 79.0 0.08 66.0
2024-05-02 19:30 2.85 15.38 199 6.00 77.5 79.3 0.06 8.0
2024-05-02 19:00 2.82 12.50 188 6.00 77.5 79.0 0.06 344.0
2024-05-02 18:30 2.95 9.09 187 6.20 77.5 78.4 0.04 133.0
2024-05-02 18:00 2.95 6.90 176 6.03 77.5 77.2 0.06 111.0
2024-05-02 17:30 2.95 14.29 188 6.06 77.5 77.0 0.06 136.0
2024-05-02 17:00 3.12 6.67 169 6.54 77.5 76.5 0.23 163.0
2024-05-02 16:30 2.99 11.76 187 6.60 77.4 75.0 0.31 157.0
2024-05-02 16:00 3.05 13.33 182 6.61 77.4 74.1 0.33 170.0
2024-05-02 15:30 3.31 6.45 169 6.47 77.4 74.1 0.45 177.0
2024-05-02 15:00 3.22 13.33 188 6.45 77.5 74.3 0.56 164.0
2024-05-02 14:30 3.38 13.33 188 6.59 77.5 74.1 0.56 154.0
2024-05-02 14:00 3.35 6.45 168 6.58 77.4 74.3 0.56 154.0
2024-05-02 13:30 3.18 12.50 187 6.60 77.4 73.9 0.37 162.0
2024-05-02 13:00 3.02 5.88 167 6.44 77.4 74.1 0.43 141.0
2024-05-02 12:30 3.05 14.29 180 6.53 77.5 74.5 0.41 138.0
2024-05-02 12:00 2.99 13.33 183 6.65 77.5 74.5 0.35 142.0
2024-05-02 11:30 2.72 13.33 185 6.34 77.5 74.7 0.45 130.0
2024-05-02 11:00 2.89 12.50 187 6.46 77.5 74.7 0.39 130.0
2024-05-02 10:30 2.72 13.33 186 6.43 77.5 74.7 0.43 120.0
2024-05-02 10:00 2.46 13.33 178 6.74 77.4 75.0 0.16 60.0
2024-05-02 09:30 2.56 14.29 187 5.96 77.4 75.2 0.35 19.0
2024-05-02 09:00 2.40 14.29 186 5.54 77.5 75.2 0.45 0.0
2024-05-02 08:30 2.23 13.33 183 5.52 77.5 75.4 0.54 357.0
2024-05-02 08:00 2.43 13.33 183 6.50 77.2 75.2 0.41 355.0
2024-05-02 07:30 2.46 14.29 187 5.88 77.2 75.4 0.25 341.0
2024-05-02 07:00 2.53 12.50 191 6.32 77.2 75.4 0.58 16.0
2024-05-02 06:30 2.30 12.50 199 5.31 77.5 75.6 0.39 359.0
2024-05-02 06:00 2.43 14.29 195 5.24 77.7 76.1 0.49 343.0
2024-05-02 05:30 2.53 11.76 193 5.06 77.7 76.3 0.39 336.0
2024-05-02 05:00 2.79 10.00 196 5.04 77.9 77.2 0.27 329.0
2024-05-02 04:30 2.99 7.14 172 5.24 77.9 78.3 0.31 323.0
2024-05-02 04:00 2.85 13.33 197 5.26 77.9 79.0 0.25 331.0
2024-05-02 03:30 2.85 11.76 203 5.36 77.9 79.0 0.02 343.0
2024-05-02 03:00 2.79 13.33 179 5.14 77.9 79.2 0.06 230.0
2024-05-02 02:30 3.02 11.76 181 5.41 77.9 81.0 0.12 166.0
2024-05-02 02:00 2.99 13.33 189 5.30 77.9 81.3 0.23 189.0
2024-05-02 01:30 2.99 12.50 180 5.31 78.1 79.7 0.12 235.0
2024-05-02 01:00 3.08 12.50 183 5.19 78.3 79.0 0.23 235.0
2024-05-02 00:30 3.18 13.33 188 5.49 78.3 78.8 0.37 208.0
2024-05-02 00:00 3.31 11.76 181 5.68 77.7 78.3 0.23 181.0
2024-05-01 23:30 3.12 12.50 182 5.41 77.7 77.7 0.19 216.0
2024-05-01 23:00 3.35 13.33 183 5.89 77.7 77.4 0.19 190.0
2024-05-01 22:30 3.28 9.52 165 5.77 77.9 77.0 0.23 223.0
2024-05-01 22:00 2.95 13.33 187 5.61 77.9 77.2 0.08 152.0
2024-05-01 21:30 2.95 14.29 196 5.49 77.9 77.9 0.06 130.0
2024-05-01 21:00 2.69 14.29 197 5.48 77.9 78.1 0.08 35.0
2024-05-01 20:30 2.66 12.50 182 6.19 77.9 80.4 0.25 353.0
2024-05-01 20:00 2.62 13.33 187 6.63 77.7 80.2 0.35 8.0
2024-05-01 19:30 2.95 13.33 188 6.79 77.7 79.9 0.39 359.0
2024-05-01 19:00 2.79 12.50 188 6.75 77.7 79.5 0.39 4.0
2024-05-01 18:30 2.72 13.33 196 7.01 77.7 78.8 0.31 346.0
2024-05-01 18:00 2.76 12.50 190 7.29 77.7 79.0 0.27 355.0
2024-05-01 17:30 2.72 14.29 185 7.29 77.9 78.8 0.39 347.0
2024-05-01 17:00 2.82 13.33 191 7.56 77.9 78.4 0.45 327.0
2024-05-01 16:30 2.82 13.33 189 7.60 77.9 77.0 0.35 315.0
2024-05-01 16:00 2.76 8.33 183 7.58 77.9 75.9 0.16 281.0
2024-05-01 15:30 2.72 10.00 211 7.76 77.9 75.9 0.14 271.0
2024-05-01 15:00 2.76 9.09 210 7.70 77.9 75.6 0.19 238.0
2024-05-01 14:30 2.89 13.33 190 7.78 77.9 76.1 0.29 174.0
2024-05-01 14:00 2.85 14.29 193 8.06 77.9 75.2 0.33 136.0
2024-05-01 13:30 2.76 13.33 193 8.03 77.9 75.6 0.31 144.0
2024-05-01 13:00 2.56 14.29 192 7.51 78.3 75.2 0.37 138.0
2024-05-01 12:30 2.92 13.33 198 8.05 78.3 75.2 0.43 137.0
2024-05-01 12:00 2.95 10.00 175 7.98 78.4 75.2 0.51 159.0
2024-05-01 11:30 2.76 10.00 194 7.67 78.4 75.4 0.56 157.0
2024-05-01 11:00 2.95 9.52 189 8.25 78.4 75.4 0.60 136.0
2024-05-01 10:30 2.82 14.29 192 7.82 78.1 75.6 0.66 149.0
2024-05-01 10:00 2.82 13.33 187 7.79 78.3 75.7 0.58 141.0
2024-05-01 09:30 2.69 13.33 183 7.70 77.7 76.3 0.39 105.0
2024-05-01 09:00 2.56 13.33 189 7.90 77.7 75.9 0.23 60.0
2024-05-01 08:30 2.56 13.33 182 7.91 77.9 76.3 0.17 11.0
2024-05-01 08:00 2.85 14.29 184 8.07 77.9 76.5 0.45 354.0
2024-05-01 07:30 2.40 14.29 178 7.33 78.4 76.6 0.54 339.0
2024-05-01 07:00 2.46 13.33 190 7.72 78.3 76.8 0.56 338.0
2024-05-01 06:30 2.62 14.29 191 8.16 77.9 77.0 0.58 326.0
2024-05-01 06:00 2.43 14.29 182 7.43 77.9 76.6 0.60 324.0
2024-05-01 05:30 2.85 14.29 189 8.33 77.9 76.5 0.58 316.0
2024-05-01 05:00 2.76 14.29 190 7.77 77.9 76.5 0.49 295.0
2024-05-01 04:30 3.12 14.29 190 7.93 77.9 76.6 0.33 202.0
2024-05-01 04:00 3.38 14.29 183 7.68 78.3 78.3 0.49 151.0
2024-05-01 03:30 3.38 14.29 179 7.21 78.4 79.0 0.80 137.0
2024-05-01 03:00 3.12 14.29 179 6.82 78.4 79.2 0.82 128.0
2024-05-01 02:30 3.02 13.33 177 6.98 78.4 79.3 0.64 129.0
2024-05-01 02:00 2.89 14.29 186 6.93 78.4 78.8 0.58 127.0
2024-05-01 01:30 2.99 13.33 190 7.00 78.4 78.8 0.60 124.0
2024-05-01 01:00 2.89 13.33 193 6.78 78.4 78.6 0.74 121.0
2024-05-01 00:30 3.08 11.11 171 7.11 78.3 78.6 0.93 122.0
2024-05-01 00:00 3.25 14.29 192 7.47 78.3 78.1 0.89 115.0